CAL12 RCTP-KJFK
Flight info
| Callsign | CAL12 |
|---|---|
| Flight time | N/A |
| Altitude | 31000 |
| Route | MOLKA1A MOLKA M750 IMPAL Y755 CARDS DCT HIOTI DCT CBE Y121 SWING Y88 DAIGO Y889 OATIS OTR3 PUTER/N0497F320 A590 PUGAL/N0485F330 A590 POWAL DCT OPAKE R580 ONEIL DCT ECOMI DCT ORVIL R580 ORCCA/N0486F350 DCT SQA DCT BGQ J124 GKN NCA14 GAHAM DCT 61N130W DCT YPE DCT WAINN DCT DURUR/N0485F370 DCT 49N100W DCT GFK DCT GRB DCT TWIGS DCT CHAAP DCT JHW Q476 WLKES PUCKY1 |
| Aircraft | B77W/H-SDE1E2E3FGHIJ2J3J4J5M1RWXY/LB1D1 |
Departure
| Time | 2026-05-06 07:18 |
|---|---|
| Airport | Taiwan Taoyuan International Airport (RCTP) |
Arrival
| Time | N/A |
|---|---|
| Airport | John F. Kennedy International Airport (KJFK) |
| Time | Latitude | Longitude | Altitude | Speed | Heading |
|---|---|---|---|---|---|
| 2026-05-06 06:44 | 25.08132 | 121.23323 | 123 ft | 0 kts | 139° |
| 2026-05-06 07:03 | 25.08133 | 121.23322 | 122 ft | 1 kts | 139° |
| 2026-05-06 07:03 | 25.08143 | 121.23312 | 122 ft | 2 kts | 139° |
| 2026-05-06 07:03 | 25.08155 | 121.23302 | 122 ft | 2 kts | 140° |
| 2026-05-06 07:03 | 25.08166 | 121.23291 | 122 ft | 2 kts | 140° |
| 2026-05-06 07:04 | 25.08178 | 121.23280 | 122 ft | 2 kts | 140° |
| 2026-05-06 07:04 | 25.08190 | 121.23270 | 122 ft | 2 kts | 161° |
| 2026-05-06 07:04 | 25.08205 | 121.23268 | 122 ft | 2 kts | 188° |
| 2026-05-06 07:04 | 25.08219 | 121.23274 | 122 ft | 2 kts | 213° |
| 2026-05-06 07:05 | 25.08227 | 121.23280 | 122 ft | 0 kts | 230° |
| 2026-05-06 07:05 | 25.08229 | 121.23283 | 122 ft | 0 kts | 230° |
| 2026-05-06 07:09 | 25.08203 | 121.23250 | 122 ft | 13 kts | 229° |
| 2026-05-06 07:09 | 25.08124 | 121.23148 | 122 ft | 17 kts | 230° |
| 2026-05-06 07:09 | 25.08051 | 121.23055 | 122 ft | 15 kts | 227° |
| 2026-05-06 07:10 | 25.07978 | 121.22966 | 122 ft | 16 kts | 229° |
| 2026-05-06 07:10 | 25.07899 | 121.22865 | 122 ft | 16 kts | 230° |
| 2026-05-06 07:10 | 25.07829 | 121.22774 | 122 ft | 14 kts | 229° |
| 2026-05-06 07:10 | 25.07768 | 121.22701 | 122 ft | 11 kts | 226° |
| 2026-05-06 07:11 | 25.07704 | 121.22619 | 122 ft | 17 kts | 231° |
| 2026-05-06 07:11 | 25.07625 | 121.22513 | 122 ft | 16 kts | 229° |
| 2026-05-06 07:11 | 25.07555 | 121.22424 | 122 ft | 13 kts | 228° |
| 2026-05-06 07:11 | 25.07496 | 121.22349 | 122 ft | 14 kts | 228° |
| 2026-05-06 07:12 | 25.07411 | 121.22242 | 122 ft | 21 kts | 229° |
| 2026-05-06 07:12 | 25.07322 | 121.22131 | 122 ft | 17 kts | 230° |
| 2026-05-06 07:12 | 25.07235 | 121.22056 | 122 ft | 14 kts | 177° |
| 2026-05-06 07:12 | 25.07161 | 121.22109 | 122 ft | 11 kts | 141° |
| 2026-05-06 07:13 | 25.07107 | 121.22161 | 122 ft | 9 kts | 133° |
| 2026-05-06 07:13 | 25.07057 | 121.22213 | 122 ft | 12 kts | 139° |
| 2026-05-06 07:13 | 25.06965 | 121.22297 | 122 ft | 21 kts | 139° |
| 2026-05-06 07:13 | 25.06832 | 121.22423 | 122 ft | 28 kts | 139° |
| 2026-05-06 07:14 | 25.06690 | 121.22559 | 122 ft | 25 kts | 139° |
| 2026-05-06 07:14 | 25.06591 | 121.22640 | 122 ft | 11 kts | 174° |
| 2026-05-06 07:14 | 25.06535 | 121.22605 | 122 ft | 9 kts | 230° |
| 2026-05-06 07:14 | 25.06472 | 121.22523 | 122 ft | 18 kts | 228° |
| 2026-05-06 07:15 | 25.06379 | 121.22412 | 122 ft | 10 kts | 210° |
| 2026-05-06 07:15 | 25.06327 | 121.22421 | 122 ft | 0 kts | 139° |
| 2026-05-06 07:15 | 25.06325 | 121.22424 | 122 ft | 2 kts | 138° |
| 2026-05-06 07:16 | 25.06296 | 121.22451 | 122 ft | 8 kts | 139° |
| 2026-05-06 07:16 | 25.06243 | 121.22503 | 122 ft | 8 kts | 133° |
| 2026-05-06 07:16 | 25.06241 | 121.22549 | 122 ft | 5 kts | 51° |
| 2026-05-06 07:16 | 25.06292 | 121.22611 | 122 ft | 29 kts | 47° |
| 2026-05-06 07:17 | 25.06555 | 121.22940 | 123 ft | 84 kts | 49° |
| 2026-05-06 07:17 | 25.07053 | 121.23586 | 123 ft | 134 kts | 50° |
| 2026-05-06 07:17 | 25.07758 | 121.24476 | 125 ft | 175 kts | 49° |
| 2026-05-06 07:17 | 25.08596 | 121.25526 | 415 ft | 184 kts | 48° |
| 2026-05-06 07:18 | 25.09420 | 121.26556 | 1113 ft | 181 kts | 51° |
| 2026-05-06 07:18 | 25.10248 | 121.27680 | 1375 ft | 196 kts | 51° |
| 2026-05-06 07:18 | 25.11130 | 121.28893 | 1523 ft | 214 kts | 51° |
| 2026-05-06 07:18 | 25.12127 | 121.30138 | 1986 ft | 216 kts | 46° |
| 2026-05-06 07:19 | 25.13190 | 121.31327 | 2419 ft | 221 kts | 46° |
| 2026-05-06 07:19 | 25.14269 | 121.32548 | 2876 ft | 225 kts | 46° |
| 2026-05-06 07:19 | 25.15395 | 121.33837 | 3165 ft | 240 kts | 46° |
| 2026-05-06 07:19 | 25.16565 | 121.35182 | 3625 ft | 247 kts | 46° |
| 2026-05-06 07:20 | 25.17772 | 121.36571 | 4139 ft | 252 kts | 46° |
| 2026-05-06 07:20 | 25.19009 | 121.37994 | 4498 ft | 265 kts | 46° |
| 2026-05-06 07:20 | 25.20303 | 121.39484 | 4905 ft | 275 kts | 46° |
| 2026-05-06 07:20 | 25.21665 | 121.41052 | 5286 ft | 287 kts | 46° |
| 2026-05-06 07:21 | 25.23063 | 121.42664 | 5852 ft | 292 kts | 46° |
| 2026-05-06 07:21 | 25.24480 | 121.44297 | 6415 ft | 297 kts | 46° |
| 2026-05-06 07:21 | 25.25900 | 121.45935 | 6973 ft | 301 kts | 46° |
| 2026-05-06 07:21 | 25.27358 | 121.47617 | 7547 ft | 304 kts | 45° |
| 2026-05-06 07:22 | 25.28787 | 121.49365 | 8147 ft | 306 kts | 56° |
| 2026-05-06 07:22 | 25.29616 | 121.51524 | 8560 ft | 312 kts | 83° |
| 2026-05-06 07:22 | 25.29602 | 121.53912 | 9071 ft | 313 kts | 95° |
| 2026-05-06 07:22 | 25.29626 | 121.56300 | 9600 ft | 318 kts | 84° |
| 2026-05-06 07:23 | 25.29946 | 121.58743 | 10199 ft | 320 kts | 79° |
| 2026-05-06 07:23 | 25.30388 | 121.61189 | 10486 ft | 333 kts | 78° |
| 2026-05-06 07:23 | 25.30880 | 121.63722 | 10703 ft | 349 kts | 77° |
| 2026-05-06 07:23 | 25.31410 | 121.66425 | 10971 ft | 364 kts | 78° |
| 2026-05-06 07:24 | 25.31956 | 121.69215 | 11220 ft | 379 kts | 77° |
| 2026-05-06 07:24 | 25.32522 | 121.72115 | 11475 ft | 394 kts | 77° |
| 2026-05-06 07:24 | 25.33105 | 121.75103 | 11895 ft | 403 kts | 77° |
| 2026-05-06 07:24 | 25.33695 | 121.78133 | 12451 ft | 407 kts | 77° |
| 2026-05-06 07:25 | 25.34291 | 121.81201 | 13038 ft | 409 kts | 77° |
| 2026-05-06 07:25 | 25.34883 | 121.84249 | 13628 ft | 412 kts | 77° |
| 2026-05-06 07:25 | 25.35482 | 121.87341 | 14206 ft | 414 kts | 76° |
| 2026-05-06 07:25 | 25.36091 | 121.90486 | 14765 ft | 417 kts | 76° |
| 2026-05-06 07:26 | 25.36693 | 121.93598 | 15296 ft | 420 kts | 76° |
| 2026-05-06 07:26 | 25.37305 | 121.96764 | 15867 ft | 422 kts | 76° |
| 2026-05-06 07:26 | 25.37926 | 121.99958 | 16404 ft | 423 kts | 74° |
| 2026-05-06 07:26 | 25.38539 | 122.03099 | 16839 ft | 426 kts | 74° |
| 2026-05-06 07:27 | 25.39162 | 122.06306 | 17245 ft | 429 kts | 74° |
| 2026-05-06 07:27 | 25.39788 | 122.09542 | 17707 ft | 431 kts | 74° |
| 2026-05-06 07:27 | 25.40414 | 122.12791 | 18160 ft | 433 kts | 74° |
| 2026-05-06 07:27 | 25.41039 | 122.16038 | 18533 ft | 437 kts | 73° |
| 2026-05-06 07:28 | 25.41675 | 122.19343 | 18942 ft | 439 kts | 73° |
| 2026-05-06 07:28 | 25.42546 | 122.22542 | 19379 ft | 438 kts | 65° |
| 2026-05-06 07:28 | 25.44674 | 122.28886 | 20136 ft | 443 kts | 64° |
| 2026-05-06 07:29 | 25.45745 | 122.32066 | 20514 ft | 446 kts | 65° |
| 2026-05-06 07:29 | 25.46836 | 122.35310 | 20935 ft | 448 kts | 65° |
| 2026-05-06 07:29 | 25.47921 | 122.38541 | 21345 ft | 450 kts | 64° |
| 2026-05-06 07:29 | 25.49007 | 122.41774 | 21709 ft | 452 kts | 64° |
| 2026-05-06 07:30 | 25.50113 | 122.45071 | 22055 ft | 456 kts | 64° |
| 2026-05-06 07:30 | 25.51201 | 122.48321 | 22433 ft | 458 kts | 64° |
| 2026-05-06 07:30 | 25.52307 | 122.51627 | 22790 ft | 460 kts | 64° |
| 2026-05-06 07:30 | 25.53429 | 122.54986 | 23148 ft | 463 kts | 64° |
| 2026-05-06 07:31 | 25.54536 | 122.58302 | 23487 ft | 466 kts | 64° |
| 2026-05-06 07:31 | 25.55665 | 122.61686 | 23830 ft | 468 kts | 64° |
| 2026-05-06 07:31 | 25.56794 | 122.65070 | 24151 ft | 471 kts | 64° |
| 2026-05-06 07:31 | 25.57925 | 122.68467 | 24470 ft | 474 kts | 64° |
| 2026-05-06 07:32 | 25.59071 | 122.71911 | 24819 ft | 476 kts | 64° |
| 2026-05-06 07:32 | 25.60218 | 122.75358 | 25139 ft | 479 kts | 64° |
| 2026-05-06 07:32 | 25.61360 | 122.78798 | 25509 ft | 481 kts | 64° |
| 2026-05-06 07:32 | 25.62513 | 122.82275 | 25894 ft | 482 kts | 64° |
| 2026-05-06 07:33 | 25.63660 | 122.85735 | 26242 ft | 484 kts | 64° |
| 2026-05-06 07:33 | 25.64829 | 122.89239 | 26567 ft | 486 kts | 64° |
| 2026-05-06 07:33 | 25.66019 | 122.92760 | 26857 ft | 489 kts | 63° |
| 2026-05-06 07:33 | 25.67217 | 122.96307 | 27144 ft | 492 kts | 63° |
| 2026-05-06 07:34 | 25.68412 | 122.99845 | 27490 ft | 493 kts | 63° |
| 2026-05-06 07:34 | 25.69609 | 123.03394 | 27789 ft | 495 kts | 63° |
| 2026-05-06 07:34 | 25.70812 | 123.06969 | 28076 ft | 498 kts | 63° |
| 2026-05-06 07:34 | 25.72013 | 123.10540 | 28378 ft | 499 kts | 63° |
| 2026-05-06 07:35 | 25.73233 | 123.14166 | 28623 ft | 502 kts | 63° |
| 2026-05-06 07:35 | 25.74448 | 123.17783 | 28877 ft | 505 kts | 63° |
| 2026-05-06 07:35 | 25.75680 | 123.21461 | 29199 ft | 506 kts | 63° |
| 2026-05-06 07:35 | 25.76889 | 123.25075 | 29579 ft | 505 kts | 63° |
| 2026-05-06 07:36 | 25.78111 | 123.28732 | 30011 ft | 503 kts | 63° |
| 2026-05-06 07:36 | 25.79313 | 123.32336 | 30427 ft | 502 kts | 62° |
| 2026-05-06 07:36 | 25.80532 | 123.35988 | 30786 ft | 501 kts | 62° |
| 2026-05-06 07:36 | 25.81730 | 123.39575 | 30935 ft | 503 kts | 62° |
| 2026-05-06 07:37 | 25.84149 | 123.46841 | 30942 ft | 501 kts | 62° |
| 2026-05-06 07:37 | 25.86957 | 123.53840 | 30975 ft | 492 kts | 50° |
| 2026-05-06 07:38 | 25.91347 | 123.59487 | 30977 ft | 476 kts | 32° |
| 2026-05-06 07:38 | 25.93990 | 123.61620 | 30971 ft | 465 kts | 24° |
| 2026-05-06 07:38 | 25.96829 | 123.63326 | 30964 ft | 465 kts | 20° |
| 2026-05-06 07:39 | 26.02584 | 123.66497 | 30938 ft | 461 kts | 19° |
| 2026-05-06 07:39 | 26.08368 | 123.69612 | 30941 ft | 462 kts | 19° |
| 2026-05-06 07:40 | 26.14163 | 123.72691 | 30950 ft | 461 kts | 19° |
| 2026-05-06 07:40 | 26.19952 | 123.75750 | 30956 ft | 460 kts | 19° |
| 2026-05-06 07:41 | 26.25737 | 123.78800 | 30967 ft | 460 kts | 19° |
| 2026-05-06 07:41 | 26.31529 | 123.81851 | 30974 ft | 461 kts | 19° |
| 2026-05-06 07:42 | 26.37307 | 123.84895 | 30973 ft | 460 kts | 19° |
| 2026-05-06 07:42 | 26.43100 | 123.87945 | 30976 ft | 459 kts | 19° |
| 2026-05-06 07:43 | 26.48846 | 123.90972 | 30976 ft | 459 kts | 19° |
| 2026-05-06 07:43 | 26.54627 | 123.94023 | 30975 ft | 458 kts | 19° |
| 2026-05-06 07:44 | 26.60394 | 123.97070 | 30978 ft | 459 kts | 19° |
| 2026-05-06 07:44 | 26.65923 | 124.00748 | 30946 ft | 464 kts | 32° |
| 2026-05-06 07:45 | 26.70488 | 124.05971 | 30969 ft | 479 kts | 43° |
| 2026-05-06 07:45 | 26.74711 | 124.11691 | 30979 ft | 480 kts | 43° |
| 2026-05-06 07:46 | 26.78961 | 124.17429 | 30977 ft | 482 kts | 43° |
| 2026-05-06 07:46 | 26.83263 | 124.23231 | 30976 ft | 482 kts | 44° |
| 2026-05-06 07:47 | 26.87513 | 124.28954 | 30974 ft | 482 kts | 43° |
| 2026-05-06 07:47 | 26.91807 | 124.34738 | 30973 ft | 481 kts | 44° |
| 2026-05-06 07:48 | 26.96072 | 124.40488 | 30971 ft | 481 kts | 44° |
| 2026-05-06 07:48 | 27.00340 | 124.46248 | 30970 ft | 482 kts | 44° |
| 2026-05-06 07:49 | 27.04619 | 124.52026 | 30967 ft | 483 kts | 44° |
| 2026-05-06 07:49 | 27.08909 | 124.57827 | 30969 ft | 483 kts | 44° |
| 2026-05-06 07:50 | 27.13201 | 124.63631 | 30980 ft | 482 kts | 44° |
| 2026-05-06 07:50 | 27.17462 | 124.69405 | 30968 ft | 482 kts | 44° |
| 2026-05-06 07:51 | 27.21750 | 124.75220 | 30974 ft | 484 kts | 45° |
| 2026-05-06 07:51 | 27.26036 | 124.81044 | 30970 ft | 483 kts | 45° |
| 2026-05-06 07:52 | 27.30273 | 124.86813 | 30973 ft | 482 kts | 45° |
| 2026-05-06 07:52 | 27.34552 | 124.92642 | 30971 ft | 483 kts | 45° |
| 2026-05-06 07:53 | 27.38831 | 124.98483 | 30976 ft | 482 kts | 45° |
| 2026-05-06 07:53 | 27.43120 | 125.04297 | 30976 ft | 484 kts | 45° |
| 2026-05-06 07:54 | 27.47423 | 125.10098 | 30975 ft | 483 kts | 45° |
| 2026-05-06 07:54 | 27.51711 | 125.15887 | 30982 ft | 484 kts | 45° |
| 2026-05-06 07:55 | 27.56004 | 125.21697 | 30982 ft | 482 kts | 45° |
| 2026-05-06 07:55 | 27.60319 | 125.27537 | 30991 ft | 485 kts | 45° |
| 2026-05-06 07:56 | 27.64615 | 125.33363 | 30991 ft | 483 kts | 45° |
| 2026-05-06 07:56 | 27.68899 | 125.39178 | 30989 ft | 485 kts | 45° |
| 2026-05-06 07:57 | 27.73223 | 125.45061 | 30990 ft | 486 kts | 45° |
| 2026-05-06 07:57 | 27.77540 | 125.50942 | 30991 ft | 486 kts | 45° |
| 2026-05-06 07:58 | 27.81846 | 125.56812 | 30993 ft | 487 kts | 45° |
| 2026-05-06 07:58 | 27.86173 | 125.62718 | 30998 ft | 487 kts | 45° |
| 2026-05-06 07:59 | 27.90469 | 125.68594 | 31001 ft | 488 kts | 45° |
| 2026-05-06 07:59 | 27.94781 | 125.74498 | 30996 ft | 489 kts | 45° |
| 2026-05-06 08:00 | 27.99121 | 125.80448 | 30995 ft | 488 kts | 45° |
| 2026-05-06 08:00 | 28.03418 | 125.86346 | 31001 ft | 489 kts | 45° |
| 2026-05-06 08:01 | 28.07748 | 125.92297 | 30999 ft | 490 kts | 45° |
| 2026-05-06 08:01 | 28.12085 | 125.98270 | 31010 ft | 493 kts | 46° |
| 2026-05-06 08:02 | 28.16414 | 126.04241 | 31010 ft | 491 kts | 46° |
| 2026-05-06 08:02 | 28.20745 | 126.10221 | 31009 ft | 493 kts | 46° |
| 2026-05-06 08:03 | 28.25123 | 126.16276 | 31010 ft | 496 kts | 46° |
| 2026-05-06 08:03 | 28.29468 | 126.22295 | 31011 ft | 496 kts | 46° |
| 2026-05-06 08:04 | 28.33853 | 126.28378 | 31007 ft | 501 kts | 46° |
| 2026-05-06 08:04 | 28.38279 | 126.34525 | 31011 ft | 503 kts | 46° |
| 2026-05-06 08:05 | 28.42680 | 126.40646 | 31009 ft | 503 kts | 46° |
| 2026-05-06 08:05 | 28.47109 | 126.46816 | 31009 ft | 506 kts | 47° |
| 2026-05-06 08:06 | 28.51547 | 126.53007 | 31007 ft | 505 kts | 47° |
| 2026-05-06 08:06 | 28.56020 | 126.59255 | 31010 ft | 512 kts | 47° |
| 2026-05-06 08:07 | 28.60508 | 126.65530 | 31010 ft | 514 kts | 48° |
| 2026-05-06 08:07 | 28.64996 | 126.71815 | 31005 ft | 514 kts | 48° |
| 2026-05-06 08:08 | 28.69488 | 126.78120 | 31004 ft | 512 kts | 49° |
| 2026-05-06 08:08 | 28.73968 | 126.84415 | 31006 ft | 514 kts | 49° |
| 2026-05-06 08:09 | 28.78451 | 126.90726 | 31006 ft | 512 kts | 49° |
| 2026-05-06 08:09 | 28.82948 | 126.97066 | 31004 ft | 515 kts | 49° |
| 2026-05-06 08:10 | 28.87426 | 127.03390 | 31007 ft | 513 kts | 49° |
| 2026-05-06 08:10 | 28.91909 | 127.09728 | 31003 ft | 515 kts | 49° |
| 2026-05-06 08:11 | 28.96430 | 127.16129 | 31006 ft | 517 kts | 49° |
| 2026-05-06 08:11 | 29.00909 | 127.22478 | 31010 ft | 519 kts | 49° |
| 2026-05-06 08:12 | 29.05442 | 127.28916 | 31009 ft | 520 kts | 49° |
| 2026-05-06 08:12 | 29.09957 | 127.35341 | 31010 ft | 522 kts | 49° |
| 2026-05-06 08:13 | 29.14523 | 127.41847 | 31008 ft | 524 kts | 49° |
| 2026-05-06 08:13 | 29.19068 | 127.48329 | 31007 ft | 524 kts | 49° |
| 2026-05-06 08:14 | 29.23600 | 127.54806 | 31003 ft | 525 kts | 49° |
| 2026-05-06 08:14 | 29.28197 | 127.61385 | 31001 ft | 528 kts | 50° |
| 2026-05-06 08:15 | 29.32768 | 127.67937 | 30992 ft | 529 kts | 51° |
| 2026-05-06 08:15 | 29.37361 | 127.74539 | 30993 ft | 532 kts | 51° |
| 2026-05-06 08:16 | 29.41973 | 127.81176 | 30992 ft | 533 kts | 51° |
| 2026-05-06 08:16 | 29.46563 | 127.87792 | 30996 ft | 534 kts | 51° |
| 2026-05-06 08:17 | 29.51189 | 127.94469 | 30995 ft | 536 kts | 51° |
| 2026-05-06 08:17 | 29.55836 | 128.01181 | 30996 ft | 538 kts | 52° |
| 2026-05-06 08:18 | 29.60487 | 128.07904 | 31000 ft | 541 kts | 52° |
| 2026-05-06 08:18 | 29.65155 | 128.14664 | 31001 ft | 541 kts | 52° |
| 2026-05-06 08:19 | 29.69807 | 128.21414 | 31003 ft | 540 kts | 52° |
| 2026-05-06 08:19 | 29.74452 | 128.28169 | 31007 ft | 540 kts | 52° |
| 2026-05-06 08:20 | 29.79116 | 128.34961 | 31009 ft | 542 kts | 52° |
| 2026-05-06 08:20 | 29.83781 | 128.41765 | 31011 ft | 542 kts | 52° |
| 2026-05-06 08:21 | 29.88438 | 128.48570 | 31009 ft | 542 kts | 52° |
| 2026-05-06 08:21 | 29.93105 | 128.55396 | 31010 ft | 544 kts | 52° |
| 2026-05-06 08:22 | 29.97791 | 128.62264 | 31016 ft | 543 kts | 52° |
| 2026-05-06 08:22 | 30.02413 | 128.69051 | 31011 ft | 543 kts | 53° |
| 2026-05-06 08:23 | 30.07071 | 128.75905 | 31013 ft | 544 kts | 52° |
| 2026-05-06 08:23 | 30.11724 | 128.82761 | 31003 ft | 542 kts | 52° |
| 2026-05-06 08:24 | 30.16390 | 128.89644 | 31000 ft | 545 kts | 52° |
| 2026-05-06 08:24 | 30.21061 | 128.96550 | 31007 ft | 548 kts | 52° |
| 2026-05-06 08:25 | 30.25702 | 129.03426 | 31006 ft | 546 kts | 53° |
| 2026-05-06 08:25 | 30.30385 | 129.10373 | 31004 ft | 547 kts | 52° |
| 2026-05-06 08:26 | 30.35049 | 129.17303 | 31009 ft | 547 kts | 52° |
| 2026-05-06 08:26 | 30.39744 | 129.24293 | 31009 ft | 546 kts | 53° |
| 2026-05-06 08:27 | 30.44407 | 129.31245 | 31009 ft | 549 kts | 52° |
| 2026-05-06 08:27 | 30.49034 | 129.38159 | 31014 ft | 546 kts | 53° |
| 2026-05-06 08:28 | 30.53688 | 129.45128 | 31017 ft | 548 kts | 52° |
| 2026-05-06 08:28 | 30.58370 | 129.52148 | 31020 ft | 549 kts | 53° |
| 2026-05-06 08:29 | 30.63019 | 129.59132 | 31023 ft | 549 kts | 52° |
| 2026-05-06 08:29 | 30.67666 | 129.66124 | 31025 ft | 549 kts | 53° |
| 2026-05-06 08:30 | 30.72339 | 129.73167 | 31020 ft | 550 kts | 53° |
| 2026-05-06 08:30 | 30.76995 | 129.80199 | 31026 ft | 550 kts | 53° |
| 2026-05-06 08:31 | 30.81633 | 129.87215 | 31022 ft | 547 kts | 53° |
| 2026-05-06 08:31 | 30.86038 | 129.94414 | 31024 ft | 548 kts | 59° |
| 2026-05-06 08:32 | 30.90038 | 130.01927 | 31044 ft | 546 kts | 59° |
| 2026-05-06 08:32 | 30.94047 | 130.09485 | 31047 ft | 548 kts | 60° |
| 2026-05-06 08:33 | 30.98026 | 130.16997 | 31053 ft | 548 kts | 60° |
| 2026-05-06 08:33 | 31.02012 | 130.24533 | 31055 ft | 549 kts | 59° |
| 2026-05-06 08:34 | 31.07989 | 130.35855 | 31060 ft | 549 kts | 60° |
| 2026-05-06 08:35 | 31.11981 | 130.43437 | 31044 ft | 548 kts | 59° |
| 2026-05-06 08:35 | 31.15986 | 130.51056 | 31048 ft | 550 kts | 60° |
| 2026-05-06 08:36 | 31.19955 | 130.58617 | 31051 ft | 548 kts | 60° |
| 2026-05-06 08:36 | 31.23921 | 130.66193 | 31047 ft | 548 kts | 60° |
| 2026-05-06 08:37 | 31.27898 | 130.73804 | 31046 ft | 551 kts | 60° |
| 2026-05-06 08:37 | 31.31881 | 130.81439 | 31056 ft | 549 kts | 60° |
| 2026-05-06 08:38 | 31.35850 | 130.89061 | 31061 ft | 550 kts | 60° |
| 2026-05-06 08:38 | 31.39829 | 130.96721 | 31059 ft | 551 kts | 60° |
| 2026-05-06 08:39 | 31.43801 | 131.04379 | 31068 ft | 553 kts | 60° |
| 2026-05-06 08:39 | 31.47775 | 131.12059 | 31061 ft | 550 kts | 61° |
| 2026-05-06 08:40 | 31.51737 | 131.19731 | 31064 ft | 554 kts | 60° |
| 2026-05-06 08:40 | 31.55682 | 131.27385 | 31068 ft | 551 kts | 60° |
| 2026-05-06 08:41 | 31.59644 | 131.35089 | 31070 ft | 553 kts | 60° |
| 2026-05-06 08:41 | 31.63585 | 131.42772 | 31081 ft | 553 kts | 60° |
| 2026-05-06 08:42 | 31.67566 | 131.50551 | 31072 ft | 552 kts | 60° |
| 2026-05-06 08:42 | 31.71485 | 131.58225 | 31075 ft | 553 kts | 60° |
| 2026-05-06 08:43 | 31.75441 | 131.65987 | 31077 ft | 553 kts | 60° |
| 2026-05-06 08:43 | 31.79378 | 131.73727 | 31071 ft | 553 kts | 60° |
| 2026-05-06 08:44 | 31.83326 | 131.81505 | 31071 ft | 553 kts | 60° |
| 2026-05-06 08:44 | 31.87240 | 131.89237 | 31068 ft | 553 kts | 60° |
| 2026-05-06 08:45 | 31.91149 | 131.96971 | 31071 ft | 555 kts | 60° |
| 2026-05-06 08:45 | 31.95110 | 132.04822 | 31076 ft | 554 kts | 60° |
| 2026-05-06 08:46 | 31.99004 | 132.12555 | 31075 ft | 555 kts | 60° |
| 2026-05-06 08:46 | 32.02915 | 132.20337 | 31077 ft | 551 kts | 60° |
| 2026-05-06 08:47 | 32.06811 | 132.28113 | 31079 ft | 553 kts | 60° |
| 2026-05-06 08:47 | 32.10707 | 132.35906 | 31077 ft | 552 kts | 60° |
| 2026-05-06 08:48 | 32.14460 | 132.43738 | 31066 ft | 549 kts | 65° |
| 2026-05-06 08:48 | 32.17837 | 132.51813 | 31067 ft | 550 kts | 65° |
| 2026-05-06 08:49 | 32.21217 | 132.59894 | 31073 ft | 551 kts | 65° |
| 2026-05-06 08:49 | 32.24619 | 132.67995 | 31068 ft | 551 kts | 65° |
| 2026-05-06 08:50 | 32.28009 | 132.76060 | 31066 ft | 550 kts | 66° |
| 2026-05-06 08:50 | 32.31382 | 132.84099 | 31069 ft | 549 kts | 66° |
| 2026-05-06 08:51 | 32.34754 | 132.92143 | 31072 ft | 548 kts | 66° |
| 2026-05-06 08:51 | 32.38130 | 133.00212 | 31074 ft | 549 kts | 66° |
| 2026-05-06 08:52 | 32.41504 | 133.08290 | 31073 ft | 546 kts | 65° |
| 2026-05-06 08:52 | 32.44862 | 133.16347 | 31070 ft | 550 kts | 66° |
| 2026-05-06 08:53 | 32.48237 | 133.24461 | 31075 ft | 551 kts | 66° |
| 2026-05-06 08:53 | 32.51594 | 133.32552 | 31085 ft | 550 kts | 65° |
| 2026-05-06 08:54 | 32.54958 | 133.40677 | 31076 ft | 550 kts | 66° |
| 2026-05-06 08:54 | 32.58334 | 133.48848 | 31083 ft | 553 kts | 66° |
| 2026-05-06 08:55 | 32.61702 | 133.57018 | 31085 ft | 552 kts | 65° |
| 2026-05-06 08:55 | 32.65065 | 133.65196 | 31082 ft | 553 kts | 66° |
| 2026-05-06 08:56 | 32.68425 | 133.73381 | 31076 ft | 553 kts | 67° |
| 2026-05-06 08:56 | 32.71767 | 133.81545 | 31082 ft | 552 kts | 66° |
| 2026-05-06 08:57 | 32.75121 | 133.89757 | 31084 ft | 554 kts | 66° |
| 2026-05-06 08:57 | 32.78456 | 133.97942 | 31084 ft | 554 kts | 66° |
| 2026-05-06 08:58 | 32.81795 | 134.06253 | 31062 ft | 557 kts | 70° |
| 2026-05-06 08:58 | 32.84182 | 134.14885 | 31084 ft | 551 kts | 77° |
| 2026-05-06 08:59 | 32.86352 | 134.23613 | 31089 ft | 554 kts | 77° |
| 2026-05-06 08:59 | 32.88520 | 134.32344 | 31084 ft | 549 kts | 76° |
| 2026-05-06 09:00 | 32.90682 | 134.41080 | 31091 ft | 553 kts | 76° |
| 2026-05-06 09:00 | 32.92837 | 134.49800 | 31086 ft | 551 kts | 76° |
| 2026-05-06 09:01 | 32.94984 | 134.58517 | 31093 ft | 550 kts | 76° |
| 2026-05-06 09:01 | 32.97127 | 134.67244 | 31081 ft | 551 kts | 77° |
| 2026-05-06 09:02 | 32.99263 | 134.75970 | 31079 ft | 550 kts | 76° |
| 2026-05-06 09:02 | 33.01394 | 134.84703 | 31079 ft | 551 kts | 76° |
| 2026-05-06 09:03 | 33.03523 | 134.93449 | 31087 ft | 550 kts | 76° |
| 2026-05-06 09:03 | 33.05637 | 135.02170 | 31099 ft | 554 kts | 76° |
| 2026-05-06 09:04 | 33.07804 | 135.10982 | 31116 ft | 553 kts | 73° |
| 2026-05-06 09:04 | 33.11293 | 135.19102 | 31129 ft | 556 kts | 54° |
| 2026-05-06 09:05 | 33.16625 | 135.25830 | 31118 ft | 562 kts | 37° |
| 2026-05-06 09:05 | 33.22751 | 135.31535 | 31100 ft | 558 kts | 35° |
| 2026-05-06 09:06 | 33.28918 | 135.37178 | 31105 ft | 561 kts | 35° |
| 2026-05-06 09:06 | 33.35104 | 135.42818 | 31105 ft | 562 kts | 34° |
| 2026-05-06 09:07 | 33.41310 | 135.48471 | 31105 ft | 559 kts | 34° |
| 2026-05-06 09:07 | 33.47513 | 135.54123 | 31104 ft | 562 kts | 35° |
| 2026-05-06 09:08 | 33.53731 | 135.59798 | 31113 ft | 561 kts | 34° |
| 2026-05-06 09:08 | 33.59951 | 135.65480 | 31120 ft | 563 kts | 35° |
| 2026-05-06 09:09 | 33.66161 | 135.71161 | 31116 ft | 565 kts | 35° |
| 2026-05-06 09:09 | 33.72400 | 135.76817 | 31123 ft | 564 kts | 34° |
| 2026-05-06 09:10 | 33.78671 | 135.82475 | 31130 ft | 567 kts | 34° |
| 2026-05-06 09:10 | 33.84970 | 135.88173 | 31134 ft | 566 kts | 34° |
| 2026-05-06 09:11 | 33.91267 | 135.93881 | 31141 ft | 569 kts | 34° |
| 2026-05-06 09:11 | 33.97558 | 135.99594 | 31142 ft | 567 kts | 34° |
| 2026-05-06 09:12 | 34.03905 | 136.05370 | 31140 ft | 572 kts | 34° |
| 2026-05-06 09:12 | 34.10190 | 136.11102 | 31144 ft | 569 kts | 34° |
| 2026-05-06 09:13 | 34.16495 | 136.16864 | 31130 ft | 571 kts | 33° |
| 2026-05-06 09:13 | 34.22843 | 136.22659 | 31132 ft | 573 kts | 33° |
| 2026-05-06 09:14 | 34.29208 | 136.28455 | 31129 ft | 574 kts | 33° |
| 2026-05-06 09:14 | 34.35593 | 136.34280 | 31126 ft | 572 kts | 32° |
| 2026-05-06 09:15 | 34.41915 | 136.40059 | 31132 ft | 576 kts | 33° |
| 2026-05-06 09:15 | 34.48301 | 136.45869 | 31129 ft | 573 kts | 33° |
| 2026-05-06 09:16 | 34.54663 | 136.51654 | 31127 ft | 574 kts | 32° |
| 2026-05-06 09:16 | 34.61057 | 136.57486 | 31129 ft | 572 kts | 32° |
| 2026-05-06 09:17 | 34.67425 | 136.63313 | 31129 ft | 577 kts | 32° |
| 2026-05-06 09:17 | 34.73785 | 136.69163 | 31114 ft | 572 kts | 32° |
| 2026-05-06 09:18 | 34.80120 | 136.75003 | 31121 ft | 572 kts | 33° |
| 2026-05-06 09:18 | 34.86446 | 136.80843 | 31125 ft | 574 kts | 33° |
| 2026-05-06 09:19 | 34.92970 | 136.86441 | 31120 ft | 572 kts | 30° |
| 2026-05-06 09:19 | 34.99464 | 136.91934 | 31125 ft | 570 kts | 30° |
| 2026-05-06 09:20 | 35.06014 | 136.97499 | 31125 ft | 574 kts | 30° |
| 2026-05-06 09:20 | 35.12558 | 137.03085 | 31112 ft | 573 kts | 30° |
| 2026-05-06 09:21 | 35.19069 | 137.08658 | 31119 ft | 574 kts | 29° |
| 2026-05-06 09:21 | 35.25630 | 137.14285 | 31122 ft | 577 kts | 29° |
| 2026-05-06 09:22 | 35.32185 | 137.19930 | 31128 ft | 576 kts | 30° |
| 2026-05-06 09:22 | 35.38128 | 137.26585 | 31117 ft | 583 kts | 46° |
| 2026-05-06 09:23 | 35.42584 | 137.34969 | 31107 ft | 593 kts | 64° |
| 2026-05-06 09:23 | 35.46014 | 137.44055 | 31146 ft | 589 kts | 65° |
| 2026-05-06 09:24 | 35.49439 | 137.53183 | 31146 ft | 595 kts | 65° |
| 2026-05-06 09:24 | 35.52913 | 137.62370 | 31155 ft | 592 kts | 64° |
| 2026-05-06 09:25 | 35.56398 | 137.71585 | 31152 ft | 597 kts | 65° |
| 2026-05-06 09:25 | 35.59869 | 137.80785 | 31149 ft | 593 kts | 65° |
| 2026-05-06 09:26 | 35.63210 | 137.90034 | 31163 ft | 597 kts | 66° |
| 2026-05-06 09:26 | 35.66551 | 137.99355 | 31163 ft | 593 kts | 66° |
| 2026-05-06 09:27 | 35.70018 | 138.08575 | 31170 ft | 598 kts | 64° |
| 2026-05-06 09:27 | 35.73577 | 138.17749 | 31174 ft | 595 kts | 63° |
| 2026-05-06 09:28 | 35.77125 | 138.26930 | 31195 ft | 598 kts | 64° |
| 2026-05-06 09:28 | 35.80679 | 138.36165 | 31181 ft | 594 kts | 64° |
| 2026-05-06 09:29 | 35.84201 | 138.45352 | 31164 ft | 599 kts | 63° |
| 2026-05-06 09:29 | 35.87750 | 138.54645 | 31169 ft | 598 kts | 64° |
| 2026-05-06 09:30 | 35.91272 | 138.63907 | 31168 ft | 597 kts | 63° |
| 2026-05-06 09:30 | 35.94765 | 138.73149 | 31154 ft | 597 kts | 65° |
| 2026-05-06 09:31 | 35.98254 | 138.82405 | 31157 ft | 597 kts | 64° |
| 2026-05-06 09:31 | 36.01746 | 138.91704 | 31151 ft | 598 kts | 65° |
| 2026-05-06 09:32 | 36.05229 | 139.01001 | 31133 ft | 597 kts | 64° |
| 2026-05-06 09:32 | 36.08678 | 139.10231 | 31142 ft | 596 kts | 64° |
| 2026-05-06 09:33 | 36.12175 | 139.19609 | 31120 ft | 599 kts | 64° |
| 2026-05-06 09:33 | 36.15647 | 139.28847 | 31131 ft | 595 kts | 60° |
| 2026-05-06 09:34 | 36.20200 | 139.37450 | 31125 ft | 598 kts | 50° |
| 2026-05-06 09:34 | 36.25017 | 139.45666 | 31124 ft | 595 kts | 50° |
| 2026-05-06 09:35 | 36.29884 | 139.53970 | 31124 ft | 597 kts | 49° |
| 2026-05-06 09:35 | 36.34744 | 139.62286 | 31131 ft | 596 kts | 49° |
| 2026-05-06 09:36 | 36.39609 | 139.70630 | 31107 ft | 597 kts | 51° |
| 2026-05-06 09:36 | 36.44460 | 139.78908 | 31107 ft | 596 kts | 50° |
| 2026-05-06 09:37 | 36.49353 | 139.87264 | 31107 ft | 598 kts | 51° |
| 2026-05-06 09:37 | 36.53949 | 139.95848 | 31113 ft | 598 kts | 53° |
| 2026-05-06 09:38 | 36.58472 | 140.04463 | 31120 ft | 596 kts | 54° |
| 2026-05-06 09:38 | 36.63049 | 140.13170 | 31124 ft | 602 kts | 53° |
| 2026-05-06 09:39 | 36.67582 | 140.21800 | 31127 ft | 597 kts | 52° |
| 2026-05-06 09:39 | 36.72118 | 140.30443 | 31127 ft | 603 kts | 52° |
| 2026-05-06 09:40 | 36.76143 | 140.39563 | 31126 ft | 601 kts | 63° |
| 2026-05-06 09:40 | 36.81244 | 140.53949 | 31136 ft | 604 kts | 64° |
| 2026-05-06 09:41 | 36.84607 | 140.63481 | 31140 ft | 603 kts | 65° |
| 2026-05-06 09:41 | 36.87955 | 140.72996 | 31113 ft | 605 kts | 64° |
| 2026-05-06 09:42 | 36.91322 | 140.82587 | 31115 ft | 601 kts | 64° |
| 2026-05-06 09:42 | 36.94676 | 140.92168 | 31121 ft | 604 kts | 64° |
| 2026-05-06 09:43 | 36.98017 | 141.01739 | 31118 ft | 602 kts | 65° |
| 2026-05-06 09:43 | 37.01348 | 141.11313 | 31124 ft | 604 kts | 64° |
| 2026-05-06 09:44 | 37.04686 | 141.20938 | 31124 ft | 604 kts | 64° |
| 2026-05-06 09:44 | 37.08017 | 141.30571 | 31132 ft | 604 kts | 65° |
| 2026-05-06 09:45 | 37.11334 | 141.40199 | 31119 ft | 603 kts | 65° |
| 2026-05-06 09:45 | 37.14643 | 141.49828 | 31137 ft | 602 kts | 65° |
| 2026-05-06 09:46 | 37.17933 | 141.59433 | 31140 ft | 605 kts | 64° |
| 2026-05-06 09:46 | 37.21241 | 141.69128 | 31117 ft | 602 kts | 65° |
| 2026-05-06 09:47 | 37.24506 | 141.78729 | 31114 ft | 604 kts | 65° |
| 2026-05-06 09:47 | 37.27790 | 141.88413 | 31133 ft | 602 kts | 65° |
| 2026-05-06 09:48 | 37.31061 | 141.98090 | 31131 ft | 603 kts | 65° |
| 2026-05-06 09:48 | 37.34304 | 142.07719 | 31131 ft | 604 kts | 65° |
| 2026-05-06 09:49 | 37.37572 | 142.17448 | 31136 ft | 603 kts | 65° |
| 2026-05-06 09:49 | 37.40818 | 142.27148 | 31148 ft | 602 kts | 64° |
| 2026-05-06 09:50 | 37.44040 | 142.36809 | 31152 ft | 602 kts | 65° |
| 2026-05-06 09:50 | 37.47253 | 142.46472 | 31167 ft | 601 kts | 65° |
| 2026-05-06 09:51 | 37.50457 | 142.56140 | 31161 ft | 602 kts | 65° |
| 2026-05-06 09:51 | 37.53665 | 142.65857 | 31155 ft | 601 kts | 65° |
| 2026-05-06 09:52 | 37.56846 | 142.75558 | 31141 ft | 602 kts | 66° |
| 2026-05-06 09:52 | 37.59979 | 142.85329 | 31151 ft | 601 kts | 66° |
| 2026-05-06 09:53 | 37.63103 | 142.95106 | 31149 ft | 602 kts | 66° |
| 2026-05-06 09:53 | 37.66190 | 143.04800 | 31149 ft | 601 kts | 66° |
| 2026-05-06 09:54 | 37.69315 | 143.14641 | 31161 ft | 601 kts | 66° |
| 2026-05-06 09:54 | 37.72388 | 143.24361 | 31161 ft | 602 kts | 66° |
| 2026-05-06 09:55 | 37.75464 | 143.34114 | 31177 ft | 600 kts | 66° |
| 2026-05-06 09:55 | 37.78537 | 143.43890 | 31177 ft | 602 kts | 65° |
| 2026-05-06 09:56 | 37.81617 | 143.53726 | 31177 ft | 599 kts | 66° |
| 2026-05-06 09:56 | 37.84405 | 143.63658 | 31180 ft | 600 kts | 69° |
| 2026-05-06 09:57 | 37.87056 | 143.73631 | 31161 ft | 600 kts | 70° |
| 2026-05-06 09:57 | 37.89712 | 143.83604 | 31170 ft | 601 kts | 70° |
| 2026-05-06 09:58 | 37.92357 | 143.93547 | 31172 ft | 600 kts | 70° |
| 2026-05-06 09:58 | 37.95008 | 144.03528 | 31177 ft | 601 kts | 71° |
| 2026-05-06 09:59 | 37.97654 | 144.13519 | 31180 ft | 598 kts | 71° |
| 2026-05-06 09:59 | 38.00296 | 144.23534 | 31183 ft | 601 kts | 70° |
| 2026-05-06 10:00 | 38.02916 | 144.33498 | 31191 ft | 600 kts | 70° |
| 2026-05-06 10:00 | 38.05542 | 144.43520 | 31191 ft | 598 kts | 70° |
| 2026-05-06 10:01 | 38.08143 | 144.53479 | 31199 ft | 600 kts | 70° |
| 2026-05-06 10:01 | 38.10755 | 144.63522 | 31193 ft | 599 kts | 70° |
| 2026-05-06 10:02 | 38.13351 | 144.73538 | 31173 ft | 599 kts | 71° |
| 2026-05-06 10:02 | 38.15934 | 144.83540 | 31175 ft | 600 kts | 71° |
| 2026-05-06 10:03 | 38.18505 | 144.93555 | 31177 ft | 598 kts | 71° |
| 2026-05-06 10:03 | 38.21073 | 145.03597 | 31172 ft | 599 kts | 71° |
| 2026-05-06 10:04 | 38.23637 | 145.13666 | 31189 ft | 598 kts | 71° |
| 2026-05-06 10:04 | 38.26183 | 145.23692 | 31189 ft | 599 kts | 70° |
| 2026-05-06 10:05 | 38.28725 | 145.33751 | 31191 ft | 598 kts | 70° |
| 2026-05-06 10:05 | 38.31320 | 145.43822 | 31206 ft | 599 kts | 66° |
| 2026-05-06 10:06 | 38.35238 | 145.53027 | 31225 ft | 592 kts | 48° |
| 2026-05-06 10:06 | 38.40727 | 145.60635 | 31219 ft | 583 kts | 35° |
| 2026-05-06 10:07 | 38.46641 | 145.67613 | 31179 ft | 578 kts | 36° |
| 2026-05-06 10:07 | 38.52551 | 145.74589 | 31185 ft | 579 kts | 36° |
| 2026-05-06 10:08 | 38.58422 | 145.81541 | 31190 ft | 578 kts | 35° |
| 2026-05-06 10:08 | 38.64339 | 145.88562 | 31193 ft | 584 kts | 36° |
| 2026-05-06 10:09 | 38.70235 | 145.95583 | 31196 ft | 582 kts | 36° |
| 2026-05-06 10:09 | 38.76141 | 146.02629 | 31205 ft | 581 kts | 35° |
| 2026-05-06 10:10 | 38.82053 | 146.09703 | 31195 ft | 578 kts | 36° |
| 2026-05-06 10:10 | 38.87951 | 146.16771 | 31204 ft | 584 kts | 36° |
| 2026-05-06 10:11 | 38.93827 | 146.23837 | 31205 ft | 579 kts | 36° |
| 2026-05-06 10:11 | 38.99705 | 146.30916 | 31209 ft | 584 kts | 36° |
| 2026-05-06 10:12 | 39.05587 | 146.38022 | 31213 ft | 580 kts | 34° |
| 2026-05-06 10:12 | 39.11489 | 146.45165 | 31197 ft | 582 kts | 36° |
| 2026-05-06 10:13 | 39.17384 | 146.52319 | 31199 ft | 582 kts | 36° |
| 2026-05-06 10:13 | 39.23219 | 146.59421 | 31210 ft | 578 kts | 35° |
| 2026-05-06 10:14 | 39.29062 | 146.66542 | 31186 ft | 581 kts | 37° |
| 2026-05-06 10:14 | 39.34890 | 146.73665 | 31182 ft | 584 kts | 36° |
| 2026-05-06 10:15 | 39.40745 | 146.80843 | 31184 ft | 578 kts | 36° |
| 2026-05-06 10:15 | 39.46582 | 146.88011 | 31182 ft | 580 kts | 37° |
| 2026-05-06 10:16 | 39.52393 | 146.95167 | 31183 ft | 577 kts | 36° |
| 2026-05-06 10:16 | 39.58173 | 147.02303 | 31188 ft | 578 kts | 36° |
| 2026-05-06 10:17 | 39.63973 | 147.09476 | 31183 ft | 577 kts | 36° |
| 2026-05-06 10:17 | 39.69743 | 147.16635 | 31192 ft | 578 kts | 36° |
| 2026-05-06 10:18 | 39.75535 | 147.23834 | 31187 ft | 577 kts | 36° |
| 2026-05-06 10:18 | 39.81317 | 147.31041 | 31190 ft | 577 kts | 36° |
| 2026-05-06 10:19 | 39.87044 | 147.38199 | 31188 ft | 573 kts | 36° |
| 2026-05-06 10:19 | 39.92820 | 147.45430 | 31192 ft | 577 kts | 37° |
| 2026-05-06 10:20 | 39.98572 | 147.52655 | 31189 ft | 573 kts | 35° |
| 2026-05-06 10:20 | 40.04280 | 147.59840 | 31189 ft | 572 kts | 36° |
| 2026-05-06 10:21 | 40.09963 | 147.67009 | 31188 ft | 573 kts | 37° |
| 2026-05-06 10:21 | 40.15664 | 147.74220 | 31189 ft | 571 kts | 38° |
| 2026-05-06 10:22 | 40.21316 | 147.81392 | 31171 ft | 562 kts | 38° |
| 2026-05-06 10:22 | 40.26856 | 147.88435 | 31176 ft | 556 kts | 38° |
| 2026-05-06 10:23 | 40.32423 | 147.95526 | 31174 ft | 560 kts | 38° |
| 2026-05-06 10:23 | 40.37928 | 148.02559 | 31155 ft | 552 kts | 38° |
| 2026-05-06 10:24 | 40.43428 | 148.09599 | 31154 ft | 553 kts | 38° |
| 2026-05-06 10:24 | 40.48905 | 148.16628 | 31162 ft | 555 kts | 37° |
| 2026-05-06 10:25 | 40.54442 | 148.23746 | 31170 ft | 553 kts | 38° |
| 2026-05-06 10:25 | 40.59881 | 148.30765 | 31162 ft | 548 kts | 37° |
| 2026-05-06 10:26 | 40.65311 | 148.37778 | 31168 ft | 553 kts | 38° |
| 2026-05-06 10:26 | 40.70777 | 148.44862 | 31176 ft | 549 kts | 38° |
| 2026-05-06 10:27 | 40.76207 | 148.51918 | 31178 ft | 549 kts | 38° |
| 2026-05-06 10:27 | 40.81587 | 148.58928 | 31142 ft | 541 kts | 38° |
| 2026-05-06 10:28 | 40.86946 | 148.65920 | 31167 ft | 546 kts | 39° |
| 2026-05-06 10:28 | 40.92323 | 148.72957 | 31158 ft | 540 kts | 39° |
| 2026-05-06 10:29 | 40.97627 | 148.79916 | 31162 ft | 540 kts | 39° |
| 2026-05-06 10:29 | 41.02927 | 148.86883 | 31153 ft | 537 kts | 39° |
| 2026-05-06 10:30 | 41.08198 | 148.93829 | 31152 ft | 536 kts | 39° |
| 2026-05-06 10:30 | 41.13448 | 149.00771 | 31146 ft | 534 kts | 39° |
| 2026-05-06 10:31 | 41.18734 | 149.07774 | 31151 ft | 538 kts | 39° |
| 2026-05-06 10:31 | 41.23959 | 149.14719 | 31155 ft | 533 kts | 40° |
| 2026-05-06 10:32 | 41.29203 | 149.21703 | 31143 ft | 531 kts | 39° |
| 2026-05-06 10:32 | 41.34438 | 149.28688 | 31136 ft | 534 kts | 39° |
| 2026-05-06 10:33 | 41.39620 | 149.35623 | 31128 ft | 528 kts | 39° |
| 2026-05-06 10:33 | 41.44769 | 149.42526 | 31147 ft | 529 kts | 40° |
| 2026-05-06 10:34 | 41.49959 | 149.49503 | 31141 ft | 527 kts | 40° |
| 2026-05-06 10:34 | 41.55067 | 149.56386 | 31150 ft | 528 kts | 40° |
| 2026-05-06 10:35 | 41.60203 | 149.63325 | 31136 ft | 524 kts | 40° |
| 2026-05-06 10:35 | 41.65308 | 149.70238 | 31122 ft | 526 kts | 40° |
| 2026-05-06 10:36 | 41.70424 | 149.77182 | 31118 ft | 524 kts | 40° |
| 2026-05-06 10:36 | 41.75524 | 149.84123 | 31131 ft | 523 kts | 40° |
| 2026-05-06 10:37 | 41.80598 | 149.91045 | 31126 ft | 523 kts | 41° |
| 2026-05-06 10:37 | 41.85658 | 149.97965 | 31122 ft | 520 kts | 41° |
| 2026-05-06 10:38 | 41.90698 | 150.04872 | 31129 ft | 519 kts | 41° |
| 2026-05-06 10:38 | 41.95723 | 150.11777 | 31127 ft | 516 kts | 41° |
| 2026-05-06 10:39 | 42.00738 | 150.18684 | 31122 ft | 517 kts | 41° |
| 2026-05-06 10:39 | 42.05741 | 150.25589 | 31126 ft | 516 kts | 41° |
| 2026-05-06 10:40 | 42.10734 | 150.32500 | 31106 ft | 517 kts | 41° |
| 2026-05-06 10:40 | 42.15740 | 150.39442 | 31115 ft | 517 kts | 41° |
| 2026-05-06 10:41 | 42.20720 | 150.46370 | 31098 ft | 516 kts | 41° |
| 2026-05-06 10:41 | 42.25694 | 150.53302 | 31117 ft | 516 kts | 41° |
| 2026-05-06 10:42 | 42.30667 | 150.60251 | 31116 ft | 515 kts | 41° |
| 2026-05-06 10:42 | 42.35640 | 150.67217 | 31101 ft | 518 kts | 42° |
| 2026-05-06 10:43 | 42.40625 | 150.74216 | 31119 ft | 515 kts | 42° |
| 2026-05-06 10:44 | 42.48059 | 150.84686 | 31103 ft | 515 kts | 42° |
| 2026-05-06 10:44 | 42.53018 | 150.91692 | 31100 ft | 516 kts | 42° |
| 2026-05-06 10:45 | 42.57961 | 150.98691 | 31099 ft | 516 kts | 42° |
| 2026-05-06 10:45 | 42.62893 | 151.05693 | 31093 ft | 514 kts | 42° |
| 2026-05-06 10:46 | 42.67837 | 151.12730 | 31090 ft | 515 kts | 42° |
| 2026-05-06 10:46 | 42.72748 | 151.19737 | 31099 ft | 513 kts | 42° |
| 2026-05-06 10:47 | 42.77649 | 151.26744 | 31096 ft | 514 kts | 42° |
| 2026-05-06 10:47 | 42.82561 | 151.33786 | 31083 ft | 514 kts | 42° |
| 2026-05-06 10:48 | 42.87484 | 151.40863 | 31091 ft | 513 kts | 41° |
| 2026-05-06 10:48 | 42.92349 | 151.47873 | 31088 ft | 512 kts | 42° |
| 2026-05-06 10:49 | 42.97246 | 151.54945 | 31088 ft | 512 kts | 42° |
| 2026-05-06 10:49 | 43.02103 | 151.61978 | 31089 ft | 511 kts | 42° |
| 2026-05-06 10:50 | 43.06963 | 151.69031 | 31079 ft | 511 kts | 43° |
| 2026-05-06 10:50 | 43.11837 | 151.76123 | 31073 ft | 512 kts | 43° |
| 2026-05-06 10:51 | 43.16690 | 151.83203 | 31077 ft | 511 kts | 43° |
| 2026-05-06 10:51 | 43.21553 | 151.90314 | 31083 ft | 512 kts | 43° |
| 2026-05-06 10:52 | 43.26397 | 151.97414 | 31073 ft | 512 kts | 43° |
| 2026-05-06 10:52 | 43.31234 | 152.04524 | 31077 ft | 512 kts | 42° |
| 2026-05-06 10:53 | 43.36097 | 152.11690 | 31070 ft | 512 kts | 42° |
| 2026-05-06 10:53 | 43.40945 | 152.18849 | 31060 ft | 512 kts | 42° |
| 2026-05-06 10:54 | 43.45774 | 152.26000 | 31062 ft | 514 kts | 42° |
| 2026-05-06 10:54 | 43.50620 | 152.33194 | 31066 ft | 513 kts | 42° |
| 2026-05-06 10:55 | 43.55451 | 152.40384 | 31062 ft | 515 kts | 42° |
| 2026-05-06 10:55 | 43.60294 | 152.47610 | 31066 ft | 513 kts | 42° |
| 2026-05-06 10:56 | 43.65132 | 152.54848 | 31062 ft | 514 kts | 42° |
| 2026-05-06 10:56 | 43.69957 | 152.62085 | 31061 ft | 513 kts | 42° |
| 2026-05-06 10:57 | 43.74795 | 152.69357 | 31038 ft | 515 kts | 43° |
| 2026-05-06 10:57 | 43.79623 | 152.76636 | 31038 ft | 516 kts | 43° |
| 2026-05-06 10:58 | 43.84458 | 152.83942 | 31034 ft | 517 kts | 43° |
| 2026-05-06 10:58 | 43.89307 | 152.91290 | 31039 ft | 517 kts | 43° |
| 2026-05-06 10:59 | 43.94131 | 152.98618 | 31029 ft | 517 kts | 43° |
| 2026-05-06 10:59 | 43.98951 | 153.05959 | 31026 ft | 518 kts | 43° |
| 2026-05-06 11:00 | 44.03789 | 153.13350 | 31028 ft | 516 kts | 42° |
| 2026-05-06 11:00 | 44.08598 | 153.20712 | 31030 ft | 516 kts | 42° |
| 2026-05-06 11:01 | 44.13409 | 153.28096 | 31030 ft | 518 kts | 42° |
| 2026-05-06 11:01 | 44.18230 | 153.35515 | 31028 ft | 519 kts | 42° |
| 2026-05-06 11:02 | 44.23055 | 153.42963 | 31030 ft | 519 kts | 42° |
| 2026-05-06 11:02 | 44.27860 | 153.50398 | 31031 ft | 519 kts | 42° |
| 2026-05-06 11:03 | 44.32687 | 153.57884 | 31024 ft | 521 kts | 42° |
| 2026-05-06 11:03 | 44.37538 | 153.65431 | 31029 ft | 521 kts | 42° |
| 2026-05-06 11:04 | 44.42361 | 153.72954 | 31014 ft | 521 kts | 43° |
| 2026-05-06 11:04 | 44.47179 | 153.80490 | 31017 ft | 520 kts | 42° |
| 2026-05-06 11:05 | 44.51982 | 153.88020 | 31008 ft | 523 kts | 42° |
| 2026-05-06 11:05 | 44.56800 | 153.95595 | 30994 ft | 524 kts | 42° |
| 2026-05-06 11:06 | 44.61620 | 154.03194 | 30998 ft | 523 kts | 42° |
| 2026-05-06 11:06 | 44.66467 | 154.10857 | 30992 ft | 524 kts | 42° |
| 2026-05-06 11:07 | 44.71276 | 154.18480 | 30995 ft | 524 kts | 42° |
| 2026-05-06 11:07 | 44.76107 | 154.26158 | 30997 ft | 525 kts | 42° |
| 2026-05-06 11:08 | 44.80919 | 154.33827 | 30998 ft | 526 kts | 42° |
| 2026-05-06 11:08 | 44.85746 | 154.41542 | 30995 ft | 525 kts | 42° |
| 2026-05-06 11:09 | 44.90508 | 154.49326 | 30993 ft | 527 kts | 43° |
| 2026-05-06 11:09 | 44.95243 | 154.57134 | 30996 ft | 527 kts | 43° |
| 2026-05-06 11:10 | 44.99977 | 154.64958 | 30994 ft | 527 kts | 43° |
| 2026-05-06 11:10 | 45.04749 | 154.72862 | 30993 ft | 531 kts | 43° |
| 2026-05-06 11:11 | 45.09501 | 154.80756 | 30995 ft | 529 kts | 43° |
| 2026-05-06 11:11 | 45.14236 | 154.88643 | 30999 ft | 527 kts | 43° |
| 2026-05-06 11:12 | 45.18967 | 154.96542 | 30992 ft | 528 kts | 43° |
| 2026-05-06 11:12 | 45.23698 | 155.04462 | 30991 ft | 527 kts | 43° |
| 2026-05-06 11:13 | 45.28441 | 155.12425 | 30998 ft | 530 kts | 43° |
| 2026-05-06 11:13 | 45.33174 | 155.20398 | 30987 ft | 527 kts | 43° |
| 2026-05-06 11:14 | 45.37883 | 155.28346 | 30990 ft | 529 kts | 43° |
| 2026-05-06 11:14 | 45.42612 | 155.36356 | 30983 ft | 530 kts | 42° |
| 2026-05-06 11:15 | 45.47340 | 155.44386 | 30984 ft | 530 kts | 43° |
| 2026-05-06 11:15 | 45.52054 | 155.52414 | 30972 ft | 529 kts | 42° |
| 2026-05-06 11:16 | 45.56728 | 155.60399 | 30975 ft | 531 kts | 42° |
| 2026-05-06 11:16 | 45.61455 | 155.68494 | 30963 ft | 532 kts | 43° |
| 2026-05-06 11:17 | 45.66165 | 155.76587 | 30961 ft | 531 kts | 43° |
| 2026-05-06 11:17 | 45.70860 | 155.84676 | 30956 ft | 530 kts | 43° |
| 2026-05-06 11:18 | 45.75560 | 155.92796 | 30956 ft | 531 kts | 43° |
| 2026-05-06 11:18 | 45.80261 | 156.00943 | 30938 ft | 531 kts | 42° |
| 2026-05-06 11:19 | 45.84934 | 156.09065 | 30942 ft | 533 kts | 42° |
| 2026-05-06 11:19 | 45.89626 | 156.17246 | 30931 ft | 530 kts | 42° |
| 2026-05-06 11:20 | 45.94304 | 156.25423 | 30935 ft | 533 kts | 42° |
| 2026-05-06 11:20 | 45.98984 | 156.33629 | 30935 ft | 531 kts | 42° |
| 2026-05-06 11:21 | 46.03632 | 156.41800 | 30924 ft | 532 kts | 42° |
| 2026-05-06 11:21 | 46.08307 | 156.50047 | 30917 ft | 530 kts | 42° |
| 2026-05-06 11:22 | 46.12960 | 156.58276 | 30937 ft | 533 kts | 42° |
| 2026-05-06 11:22 | 46.17609 | 156.66527 | 30923 ft | 531 kts | 43° |
| 2026-05-06 11:23 | 46.22294 | 156.74860 | 30912 ft | 536 kts | 43° |
| 2026-05-06 11:23 | 46.26932 | 156.83142 | 30913 ft | 533 kts | 42° |
| 2026-05-06 11:24 | 46.31573 | 156.91450 | 30915 ft | 532 kts | 42° |
| 2026-05-06 11:24 | 46.36192 | 156.99741 | 30917 ft | 534 kts | 42° |
| 2026-05-06 11:25 | 46.40822 | 157.08084 | 30911 ft | 531 kts | 42° |
| 2026-05-06 11:25 | 46.45464 | 157.16464 | 30910 ft | 533 kts | 42° |
| 2026-05-06 11:26 | 46.50096 | 157.24855 | 30906 ft | 536 kts | 42° |
| 2026-05-06 11:26 | 46.54692 | 157.33214 | 30911 ft | 530 kts | 41° |
| 2026-05-06 11:27 | 46.59301 | 157.41606 | 30904 ft | 537 kts | 41° |
| 2026-05-06 11:27 | 46.63911 | 157.50043 | 30905 ft | 532 kts | 41° |
| 2026-05-06 11:28 | 46.68493 | 157.58440 | 30905 ft | 536 kts | 42° |
| 2026-05-06 11:28 | 46.73109 | 157.66936 | 30882 ft | 534 kts | 42° |
| 2026-05-06 11:29 | 46.77706 | 157.75417 | 30893 ft | 540 kts | 43° |
| 2026-05-06 11:29 | 46.82320 | 157.83966 | 30883 ft | 534 kts | 42° |
| 2026-05-06 11:30 | 46.86938 | 157.92528 | 30885 ft | 538 kts | 42° |
| 2026-05-06 11:30 | 46.91514 | 158.01051 | 30872 ft | 537 kts | 42° |
| 2026-05-06 11:31 | 46.96111 | 158.09639 | 30850 ft | 536 kts | 41° |
| 2026-05-06 11:31 | 47.00709 | 158.18249 | 30857 ft | 538 kts | 41° |
| 2026-05-06 11:32 | 47.05275 | 158.26842 | 30859 ft | 534 kts | 41° |
| 2026-05-06 11:32 | 47.09834 | 158.35439 | 30856 ft | 536 kts | 41° |
| 2026-05-06 11:33 | 47.14374 | 158.44023 | 30868 ft | 536 kts | 41° |
| 2026-05-06 11:33 | 47.18941 | 158.52693 | 30861 ft | 534 kts | 41° |
| 2026-05-06 11:34 | 47.23486 | 158.61339 | 30861 ft | 538 kts | 41° |
| 2026-05-06 11:34 | 47.28037 | 158.70026 | 30841 ft | 540 kts | 42° |
| 2026-05-06 11:35 | 47.32583 | 158.78742 | 30836 ft | 538 kts | 41° |
| 2026-05-06 11:35 | 47.37141 | 158.87499 | 30836 ft | 538 kts | 41° |
| 2026-05-06 11:36 | 47.41684 | 158.96260 | 30843 ft | 537 kts | 41° |
| 2026-05-06 11:36 | 47.46205 | 159.04996 | 30827 ft | 542 kts | 42° |
| 2026-05-06 11:37 | 47.50734 | 159.13792 | 30839 ft | 537 kts | 42° |
| 2026-05-06 11:37 | 47.55295 | 159.22662 | 30824 ft | 543 kts | 42° |
| 2026-05-06 11:38 | 47.59811 | 159.31490 | 30831 ft | 537 kts | 42° |
| 2026-05-06 11:38 | 47.64343 | 159.40367 | 30829 ft | 541 kts | 42° |
| 2026-05-06 11:39 | 47.68843 | 159.49219 | 30826 ft | 541 kts | 42° |
| 2026-05-06 11:39 | 47.73357 | 159.58122 | 30826 ft | 540 kts | 41° |
| 2026-05-06 11:40 | 47.77842 | 159.66986 | 30809 ft | 542 kts | 41° |
| 2026-05-06 11:40 | 47.82344 | 159.75922 | 30803 ft | 542 kts | 42° |
| 2026-05-06 11:41 | 47.86871 | 159.84930 | 30801 ft | 544 kts | 42° |
| 2026-05-06 11:41 | 47.91373 | 159.93924 | 30785 ft | 545 kts | 42° |
| 2026-05-06 11:42 | 47.95877 | 160.02957 | 30786 ft | 541 kts | 42° |
| 2026-05-06 11:42 | 48.00347 | 160.11943 | 30777 ft | 541 kts | 41° |
| 2026-05-06 11:43 | 48.04834 | 160.20987 | 30779 ft | 544 kts | 41° |
| 2026-05-06 11:43 | 48.09304 | 160.30039 | 30778 ft | 544 kts | 41° |
| 2026-05-06 11:44 | 48.16037 | 160.43724 | 30799 ft | 548 kts | 41° |
| 2026-05-06 11:44 | 48.20526 | 160.52896 | 30800 ft | 546 kts | 41° |
| 2026-05-06 11:45 | 48.24981 | 160.62024 | 30801 ft | 546 kts | 41° |
| 2026-05-06 11:45 | 48.29425 | 160.71317 | 30758 ft | 551 kts | 43° |
| 2026-05-06 11:46 | 48.33816 | 160.80817 | 30778 ft | 555 kts | 43° |
| 2026-05-06 11:46 | 48.38174 | 160.90294 | 30768 ft | 551 kts | 43° |
| 2026-05-06 11:47 | 48.42480 | 160.99689 | 30779 ft | 550 kts | 43° |
| 2026-05-06 11:47 | 48.46832 | 161.09201 | 30772 ft | 552 kts | 43° |
| 2026-05-06 11:48 | 48.51168 | 161.18726 | 30767 ft | 551 kts | 43° |
| 2026-05-06 11:48 | 48.55500 | 161.28267 | 30771 ft | 555 kts | 43° |
| 2026-05-06 11:49 | 48.59816 | 161.37822 | 30762 ft | 550 kts | 43° |
| 2026-05-06 11:49 | 48.64114 | 161.47362 | 30761 ft | 555 kts | 43° |
| 2026-05-06 11:50 | 48.68420 | 161.56955 | 30761 ft | 551 kts | 43° |
| 2026-05-06 11:50 | 48.72714 | 161.66556 | 30736 ft | 552 kts | 44° |
| 2026-05-06 11:51 | 48.77016 | 161.76198 | 30716 ft | 556 kts | 44° |
| 2026-05-06 11:51 | 48.81361 | 161.85977 | 30716 ft | 560 kts | 44° |
| 2026-05-06 11:52 | 48.85653 | 161.95694 | 30724 ft | 556 kts | 44° |
| 2026-05-06 11:52 | 48.89968 | 162.05473 | 30710 ft | 561 kts | 44° |
| 2026-05-06 11:53 | 48.94269 | 162.15268 | 30692 ft | 559 kts | 44° |
| 2026-05-06 11:53 | 48.98591 | 162.25137 | 30713 ft | 562 kts | 45° |
| 2026-05-06 11:54 | 49.02884 | 162.34984 | 30701 ft | 561 kts | 45° |
| 2026-05-06 11:54 | 49.07169 | 162.44856 | 30704 ft | 555 kts | 45° |
| 2026-05-06 11:55 | 49.11417 | 162.54666 | 30712 ft | 559 kts | 46° |
| 2026-05-06 11:55 | 49.15631 | 162.64442 | 30715 ft | 553 kts | 46° |
| 2026-05-06 11:56 | 49.19850 | 162.74266 | 30680 ft | 553 kts | 46° |
| 2026-05-06 11:56 | 49.24032 | 162.84030 | 30679 ft | 554 kts | 47° |
| 2026-05-06 11:57 | 49.28220 | 162.93857 | 30685 ft | 546 kts | 47° |
| 2026-05-06 11:57 | 49.32352 | 163.03575 | 30692 ft | 549 kts | 48° |
| 2026-05-06 11:58 | 49.36474 | 163.13303 | 30693 ft | 546 kts | 47° |
| 2026-05-06 11:58 | 49.40593 | 163.23067 | 30694 ft | 546 kts | 48° |
| 2026-05-06 11:59 | 49.44704 | 163.32854 | 30690 ft | 543 kts | 49° |
| 2026-05-06 11:59 | 49.48753 | 163.42529 | 30687 ft | 541 kts | 49° |
| 2026-05-06 12:00 | 49.52774 | 163.52168 | 30686 ft | 541 kts | 49° |
| 2026-05-06 12:00 | 49.56822 | 163.61906 | 30684 ft | 537 kts | 49° |
| 2026-05-06 12:01 | 49.60831 | 163.71580 | 30669 ft | 541 kts | 50° |
| 2026-05-06 12:01 | 49.64849 | 163.81319 | 30663 ft | 537 kts | 50° |
| 2026-05-06 12:02 | 49.68828 | 163.90993 | 30653 ft | 537 kts | 51° |
| 2026-05-06 12:02 | 49.72790 | 164.00667 | 30656 ft | 534 kts | 50° |
| 2026-05-06 12:03 | 49.76761 | 164.10391 | 30666 ft | 536 kts | 51° |
| 2026-05-06 12:03 | 49.80709 | 164.20099 | 30664 ft | 534 kts | 51° |
| 2026-05-06 12:04 | 49.84655 | 164.29840 | 30663 ft | 533 kts | 51° |
| 2026-05-06 12:04 | 49.88594 | 164.39592 | 30663 ft | 536 kts | 51° |
| 2026-05-06 12:05 | 49.92485 | 164.49269 | 30662 ft | 534 kts | 52° |
| 2026-05-06 12:05 | 49.96400 | 164.59039 | 30661 ft | 531 kts | 52° |
| 2026-05-06 12:06 | 50.00287 | 164.68773 | 30656 ft | 533 kts | 53° |
| 2026-05-06 12:06 | 50.04157 | 164.78505 | 30644 ft | 531 kts | 53° |
| 2026-05-06 12:07 | 50.08013 | 164.88235 | 30634 ft | 528 kts | 53° |
| 2026-05-06 12:07 | 50.11831 | 164.97905 | 30624 ft | 528 kts | 53° |
| 2026-05-06 12:08 | 50.15661 | 165.07642 | 30631 ft | 527 kts | 53° |
| 2026-05-06 12:08 | 50.19985 | 165.16684 | 30642 ft | 519 kts | 41° |
| 2026-05-06 12:09 | 50.24937 | 165.24800 | 30619 ft | 517 kts | 40° |
| 2026-05-06 12:09 | 50.29877 | 165.32930 | 30619 ft | 519 kts | 40° |
| 2026-05-06 12:10 | 50.34818 | 165.41122 | 30619 ft | 517 kts | 41° |
| 2026-05-06 12:10 | 50.39708 | 165.49275 | 30621 ft | 517 kts | 41° |
| 2026-05-06 12:11 | 50.44601 | 165.57472 | 30615 ft | 516 kts | 41° |
| 2026-05-06 12:11 | 50.49511 | 165.65729 | 30619 ft | 517 kts | 42° |
| 2026-05-06 12:12 | 50.54365 | 165.73921 | 30604 ft | 517 kts | 42° |
| 2026-05-06 12:12 | 50.59271 | 165.82230 | 30599 ft | 516 kts | 42° |
| 2026-05-06 12:13 | 50.64090 | 165.90422 | 30593 ft | 515 kts | 42° |
| 2026-05-06 12:13 | 50.68941 | 165.98694 | 30586 ft | 515 kts | 42° |
| 2026-05-06 12:14 | 50.73769 | 166.06953 | 30579 ft | 514 kts | 43° |
| 2026-05-06 12:14 | 50.78592 | 166.15234 | 30574 ft | 513 kts | 43° |
| 2026-05-06 12:15 | 50.83393 | 166.23502 | 30580 ft | 514 kts | 43° |
| 2026-05-06 12:15 | 50.88218 | 166.31838 | 30571 ft | 514 kts | 43° |
| 2026-05-06 12:16 | 50.93034 | 166.40186 | 30567 ft | 513 kts | 43° |
| 2026-05-06 12:16 | 50.97791 | 166.48460 | 30570 ft | 512 kts | 43° |
| 2026-05-06 12:17 | 51.02555 | 166.56773 | 30569 ft | 510 kts | 43° |
| 2026-05-06 12:17 | 51.07307 | 166.65094 | 30572 ft | 510 kts | 44° |
| 2026-05-06 12:18 | 51.12060 | 166.73442 | 30559 ft | 510 kts | 44° |
| 2026-05-06 12:18 | 51.16814 | 166.81821 | 30553 ft | 510 kts | 44° |
| 2026-05-06 12:19 | 51.21552 | 166.90196 | 30554 ft | 510 kts | 44° |
| 2026-05-06 12:19 | 51.26286 | 166.98596 | 30546 ft | 509 kts | 44° |
| 2026-05-06 12:20 | 51.30991 | 167.06972 | 30537 ft | 508 kts | 44° |
| 2026-05-06 12:20 | 51.35656 | 167.15303 | 30532 ft | 508 kts | 45° |
| 2026-05-06 12:21 | 51.40346 | 167.23706 | 30532 ft | 508 kts | 45° |
| 2026-05-06 12:21 | 51.45041 | 167.32147 | 30540 ft | 507 kts | 45° |
| 2026-05-06 12:22 | 51.49696 | 167.40544 | 30544 ft | 507 kts | 45° |
| 2026-05-06 12:22 | 51.54376 | 167.49014 | 30537 ft | 506 kts | 45° |
| 2026-05-06 12:23 | 51.59007 | 167.57423 | 30539 ft | 507 kts | 45° |
| 2026-05-06 12:23 | 51.63656 | 167.65894 | 30528 ft | 505 kts | 46° |
| 2026-05-06 12:24 | 51.68280 | 167.74347 | 30524 ft | 505 kts | 46° |
| 2026-05-06 12:24 | 51.72874 | 167.82776 | 30509 ft | 504 kts | 46° |
| 2026-05-06 12:25 | 51.77489 | 167.91269 | 30509 ft | 502 kts | 46° |
| 2026-05-06 12:25 | 51.82082 | 167.99751 | 30517 ft | 503 kts | 46° |
| 2026-05-06 12:26 | 51.86647 | 168.08209 | 30513 ft | 502 kts | 46° |
| 2026-05-06 12:26 | 51.91230 | 168.16731 | 30511 ft | 503 kts | 46° |
| 2026-05-06 12:27 | 51.95809 | 168.25272 | 30512 ft | 504 kts | 46° |
| 2026-05-06 12:27 | 52.00357 | 168.33784 | 30504 ft | 502 kts | 47° |
| 2026-05-06 12:28 | 52.04927 | 168.42368 | 30504 ft | 503 kts | 47° |
| 2026-05-06 12:28 | 52.09462 | 168.50914 | 30510 ft | 503 kts | 47° |
| 2026-05-06 12:29 | 52.14014 | 168.59521 | 30502 ft | 502 kts | 47° |
| 2026-05-06 12:29 | 52.18531 | 168.68092 | 30515 ft | 503 kts | 47° |
| 2026-05-06 12:30 | 52.23068 | 168.76730 | 30500 ft | 503 kts | 48° |
| 2026-05-06 12:30 | 52.27585 | 168.85361 | 30493 ft | 502 kts | 48° |
| 2026-05-06 12:31 | 52.32101 | 168.94017 | 30504 ft | 501 kts | 48° |
| 2026-05-06 12:31 | 52.36617 | 169.02705 | 30500 ft | 503 kts | 48° |
| 2026-05-06 12:32 | 52.41117 | 169.11391 | 30501 ft | 503 kts | 48° |
| 2026-05-06 12:32 | 52.45603 | 169.20081 | 30495 ft | 502 kts | 48° |
| 2026-05-06 12:33 | 52.50121 | 169.28862 | 30505 ft | 503 kts | 48° |
| 2026-05-06 12:33 | 52.54600 | 169.37598 | 30492 ft | 502 kts | 49° |
| 2026-05-06 12:34 | 52.59069 | 169.46346 | 30492 ft | 502 kts | 49° |
| 2026-05-06 12:34 | 52.63509 | 169.55066 | 30501 ft | 502 kts | 49° |
| 2026-05-06 12:35 | 52.67990 | 169.63898 | 30496 ft | 500 kts | 49° |
| 2026-05-06 12:35 | 52.72411 | 169.72643 | 30499 ft | 500 kts | 50° |
| 2026-05-06 12:36 | 52.76824 | 169.81403 | 30497 ft | 499 kts | 50° |
| 2026-05-06 12:36 | 52.81266 | 169.90250 | 30507 ft | 500 kts | 50° |
| 2026-05-06 12:37 | 52.85671 | 169.99054 | 30494 ft | 498 kts | 50° |
| 2026-05-06 12:37 | 52.90051 | 170.07838 | 30499 ft | 500 kts | 50° |
| 2026-05-06 12:38 | 52.94462 | 170.16711 | 30501 ft | 498 kts | 49° |
| 2026-05-06 12:38 | 52.98986 | 170.25420 | 30500 ft | 498 kts | 49° |
| 2026-05-06 12:39 | 53.03477 | 170.34052 | 30501 ft | 498 kts | 49° |
| 2026-05-06 12:39 | 53.07990 | 170.42769 | 30499 ft | 497 kts | 49° |
| 2026-05-06 12:40 | 53.12479 | 170.51479 | 30499 ft | 497 kts | 49° |
| 2026-05-06 12:40 | 53.16921 | 170.60135 | 30495 ft | 497 kts | 50° |
| 2026-05-06 12:41 | 53.21418 | 170.68929 | 30507 ft | 497 kts | 50° |
| 2026-05-06 12:41 | 53.25854 | 170.77634 | 30510 ft | 496 kts | 51° |
| 2026-05-06 12:42 | 53.30323 | 170.86438 | 30514 ft | 496 kts | 51° |
| 2026-05-06 12:42 | 53.34758 | 170.95204 | 30522 ft | 495 kts | 51° |
| 2026-05-06 12:43 | 53.39177 | 171.03970 | 30514 ft | 494 kts | 51° |
| 2026-05-06 12:43 | 53.43583 | 171.12744 | 30522 ft | 495 kts | 51° |
| 2026-05-06 12:44 | 53.47977 | 171.21524 | 30521 ft | 493 kts | 51° |
| 2026-05-06 12:44 | 53.52353 | 171.30298 | 30515 ft | 492 kts | 51° |
| 2026-05-06 12:45 | 53.56745 | 171.39136 | 30517 ft | 492 kts | 51° |
| 2026-05-06 12:46 | 53.63255 | 171.52292 | 30512 ft | 490 kts | 52° |
| 2026-05-06 12:46 | 53.67607 | 171.61128 | 30515 ft | 490 kts | 52° |
| 2026-05-06 12:47 | 53.71927 | 171.69928 | 30517 ft | 488 kts | 52° |
| 2026-05-06 12:47 | 53.76214 | 171.78693 | 30521 ft | 487 kts | 53° |
| 2026-05-06 12:48 | 53.80514 | 171.87517 | 30526 ft | 488 kts | 53° |
| 2026-05-06 12:48 | 53.84811 | 171.96365 | 30533 ft | 487 kts | 53° |
| 2026-05-06 12:49 | 53.89100 | 172.05228 | 30536 ft | 487 kts | 53° |
| 2026-05-06 12:49 | 53.93347 | 172.14035 | 30540 ft | 484 kts | 53° |
| 2026-05-06 12:50 | 53.97585 | 172.22858 | 30534 ft | 485 kts | 53° |
| 2026-05-06 12:50 | 54.01830 | 172.31725 | 30542 ft | 483 kts | 53° |
| 2026-05-06 12:51 | 54.06036 | 172.40540 | 30541 ft | 482 kts | 54° |
| 2026-05-06 12:51 | 54.10236 | 172.49376 | 30534 ft | 482 kts | 54° |
| 2026-05-06 12:52 | 54.14432 | 172.58234 | 30533 ft | 482 kts | 54° |
| 2026-05-06 12:52 | 54.18637 | 172.67143 | 30543 ft | 483 kts | 55° |
| 2026-05-06 12:53 | 54.22812 | 172.76021 | 30545 ft | 481 kts | 55° |
| 2026-05-06 12:53 | 54.26799 | 172.85075 | 30541 ft | 476 kts | 60° |
| 2026-05-06 12:54 | 54.30424 | 172.94435 | 30544 ft | 475 kts | 60° |
| 2026-05-06 12:54 | 54.34053 | 173.03867 | 30555 ft | 473 kts | 61° |
| 2026-05-06 12:55 | 54.37658 | 173.13277 | 30546 ft | 474 kts | 61° |
| 2026-05-06 12:55 | 54.41240 | 173.22659 | 30543 ft | 473 kts | 61° |
| 2026-05-06 12:56 | 54.44833 | 173.32108 | 30547 ft | 473 kts | 62° |
| 2026-05-06 12:56 | 54.48401 | 173.41530 | 30550 ft | 473 kts | 62° |
| 2026-05-06 12:57 | 54.51958 | 173.50955 | 30559 ft | 472 kts | 62° |
| 2026-05-06 12:57 | 54.55527 | 173.60451 | 30551 ft | 473 kts | 62° |
| 2026-05-06 12:58 | 54.59061 | 173.69888 | 30562 ft | 471 kts | 63° |
| 2026-05-06 12:58 | 54.62589 | 173.79346 | 30554 ft | 471 kts | 63° |
| 2026-05-06 12:59 | 54.66113 | 173.88823 | 30575 ft | 470 kts | 63° |
| 2026-05-06 12:59 | 54.69640 | 173.98346 | 30579 ft | 470 kts | 63° |
| 2026-05-06 13:00 | 54.73140 | 174.07834 | 30585 ft | 469 kts | 64° |
| 2026-05-06 13:00 | 54.76618 | 174.17303 | 30594 ft | 470 kts | 64° |
| 2026-05-06 13:01 | 54.80090 | 174.26790 | 30592 ft | 467 kts | 64° |
| 2026-05-06 13:01 | 54.83562 | 174.36314 | 30597 ft | 467 kts | 64° |
| 2026-05-06 13:02 | 54.87004 | 174.45795 | 30601 ft | 468 kts | 64° |
| 2026-05-06 13:02 | 54.90445 | 174.55307 | 30609 ft | 467 kts | 64° |
| 2026-05-06 13:03 | 54.93874 | 174.64822 | 30615 ft | 467 kts | 64° |
| 2026-05-06 13:03 | 54.97310 | 174.74394 | 30634 ft | 465 kts | 65° |
| 2026-05-06 13:04 | 55.00710 | 174.83905 | 30636 ft | 464 kts | 65° |
| 2026-05-06 13:04 | 55.04087 | 174.93387 | 30637 ft | 464 kts | 65° |
| 2026-05-06 13:05 | 55.07479 | 175.02953 | 30642 ft | 467 kts | 65° |
| 2026-05-06 13:05 | 55.10885 | 175.12587 | 30652 ft | 467 kts | 65° |
| 2026-05-06 13:06 | 55.14264 | 175.22186 | 30647 ft | 465 kts | 65° |
| 2026-05-06 13:06 | 55.17625 | 175.31773 | 30655 ft | 464 kts | 65° |
| 2026-05-06 13:07 | 55.20976 | 175.41371 | 30668 ft | 466 kts | 65° |
| 2026-05-06 13:07 | 55.24342 | 175.51045 | 30671 ft | 465 kts | 65° |
| 2026-05-06 13:08 | 55.27683 | 175.60684 | 30685 ft | 464 kts | 65° |
| 2026-05-06 13:08 | 55.31026 | 175.70372 | 30688 ft | 463 kts | 65° |
| 2026-05-06 13:09 | 55.34346 | 175.80029 | 30699 ft | 464 kts | 65° |
| 2026-05-06 13:09 | 55.37649 | 175.89679 | 30706 ft | 465 kts | 65° |
| 2026-05-06 13:10 | 55.40958 | 175.99379 | 30704 ft | 464 kts | 65° |
| 2026-05-06 13:10 | 55.44278 | 176.09157 | 30704 ft | 465 kts | 65° |
| 2026-05-06 13:11 | 55.47578 | 176.18909 | 30717 ft | 464 kts | 65° |
| 2026-05-06 13:11 | 55.50864 | 176.28664 | 30725 ft | 468 kts | 65° |
| 2026-05-06 13:12 | 55.54151 | 176.38454 | 30748 ft | 464 kts | 65° |
| 2026-05-06 13:12 | 55.57427 | 176.48259 | 30731 ft | 465 kts | 65° |
| 2026-05-06 13:13 | 55.60700 | 176.58092 | 30757 ft | 466 kts | 65° |
| 2026-05-06 13:13 | 55.63955 | 176.67908 | 30770 ft | 464 kts | 66° |
| 2026-05-06 13:14 | 55.67212 | 176.77776 | 30771 ft | 467 kts | 65° |
| 2026-05-06 13:14 | 55.70461 | 176.87656 | 30783 ft | 466 kts | 65° |
| 2026-05-06 13:15 | 55.73706 | 176.97563 | 30780 ft | 465 kts | 65° |
| 2026-05-06 13:15 | 55.76932 | 177.07455 | 30791 ft | 465 kts | 65° |
| 2026-05-06 13:16 | 55.80166 | 177.17415 | 30807 ft | 467 kts | 65° |
| 2026-05-06 13:16 | 55.83378 | 177.27342 | 30820 ft | 466 kts | 65° |
| 2026-05-06 13:17 | 55.86602 | 177.37354 | 30824 ft | 468 kts | 65° |
| 2026-05-06 13:17 | 55.89816 | 177.47371 | 30826 ft | 467 kts | 65° |
| 2026-05-06 13:18 | 55.92991 | 177.57314 | 30818 ft | 468 kts | 65° |
| 2026-05-06 13:18 | 55.96210 | 177.67430 | 30848 ft | 466 kts | 66° |
| 2026-05-06 13:19 | 55.99386 | 177.77458 | 30860 ft | 467 kts | 66° |
| 2026-05-06 13:19 | 56.02555 | 177.87508 | 30849 ft | 467 kts | 66° |
| 2026-05-06 13:20 | 56.05741 | 177.97655 | 30860 ft | 471 kts | 66° |
| 2026-05-06 13:20 | 56.08921 | 178.07820 | 30850 ft | 470 kts | 65° |
| 2026-05-06 13:21 | 56.12097 | 178.18027 | 30846 ft | 471 kts | 66° |
| 2026-05-06 13:21 | 56.15250 | 178.28198 | 30853 ft | 470 kts | 66° |
| 2026-05-06 13:22 | 56.18406 | 178.38429 | 30864 ft | 472 kts | 65° |
| 2026-05-06 13:22 | 56.21584 | 178.48775 | 30868 ft | 472 kts | 65° |
| 2026-05-06 13:23 | 56.24726 | 178.59050 | 30872 ft | 471 kts | 65° |
| 2026-05-06 13:23 | 56.27851 | 178.69312 | 30878 ft | 472 kts | 66° |
| 2026-05-06 13:24 | 56.30983 | 178.79640 | 30887 ft | 472 kts | 66° |
| 2026-05-06 13:24 | 56.34127 | 178.90053 | 30890 ft | 472 kts | 66° |
| 2026-05-06 13:25 | 56.37229 | 179.00375 | 30900 ft | 472 kts | 66° |
| 2026-05-06 13:25 | 56.40335 | 179.10756 | 30906 ft | 473 kts | 66° |
| 2026-05-06 13:26 | 56.43434 | 179.21159 | 30907 ft | 472 kts | 66° |
| 2026-05-06 13:26 | 56.46540 | 179.31635 | 30919 ft | 473 kts | 66° |
| 2026-05-06 13:27 | 56.49618 | 179.42058 | 30920 ft | 472 kts | 66° |
| 2026-05-06 13:27 | 56.52681 | 179.52477 | 30929 ft | 472 kts | 65° |
| 2026-05-06 13:28 | 56.55748 | 179.62961 | 30939 ft | 473 kts | 65° |
| 2026-05-06 13:28 | 56.58796 | 179.73421 | 30955 ft | 471 kts | 66° |
| 2026-05-06 13:29 | 56.61854 | 179.83966 | 30950 ft | 471 kts | 66° |
| 2026-05-06 13:29 | 56.64876 | 179.94434 | 30968 ft | 470 kts | 66° |
| 2026-05-06 13:30 | 56.67867 | -179.95160 | 30972 ft | 468 kts | 66° |
| 2026-05-06 13:30 | 56.70880 | -179.84627 | 30976 ft | 468 kts | 66° |
| 2026-05-06 13:31 | 56.73859 | -179.74167 | 30984 ft | 470 kts | 66° |
| 2026-05-06 13:31 | 56.76845 | -179.63637 | 30976 ft | 468 kts | 66° |
| 2026-05-06 13:32 | 56.79808 | -179.53136 | 30983 ft | 467 kts | 65° |
| 2026-05-06 13:32 | 56.82763 | -179.42616 | 30982 ft | 467 kts | 66° |
| 2026-05-06 13:33 | 56.85715 | -179.32060 | 30996 ft | 467 kts | 66° |
| 2026-05-06 13:33 | 56.88644 | -179.21539 | 30998 ft | 467 kts | 66° |
| 2026-05-06 13:34 | 56.91552 | -179.11044 | 31007 ft | 466 kts | 66° |
| 2026-05-06 13:34 | 56.94472 | -179.00456 | 31009 ft | 467 kts | 65° |
| 2026-05-06 13:35 | 56.97378 | -178.89871 | 31007 ft | 468 kts | 65° |
| 2026-05-06 13:35 | 57.00288 | -178.79225 | 31008 ft | 469 kts | 65° |
| 2026-05-06 13:36 | 57.03191 | -178.68553 | 31023 ft | 469 kts | 65° |
| 2026-05-06 13:36 | 57.06090 | -178.57843 | 31020 ft | 469 kts | 65° |
| 2026-05-06 13:37 | 57.08969 | -178.47157 | 31027 ft | 471 kts | 65° |
| 2026-05-06 13:37 | 57.11845 | -178.36436 | 31022 ft | 470 kts | 65° |
| 2026-05-06 13:38 | 57.14721 | -178.25658 | 31028 ft | 472 kts | 65° |
| 2026-05-06 13:38 | 57.17601 | -178.14800 | 31029 ft | 473 kts | 65° |
| 2026-05-06 13:39 | 57.20462 | -178.03978 | 31036 ft | 473 kts | 65° |
| 2026-05-06 13:39 | 57.23334 | -177.93059 | 31034 ft | 474 kts | 65° |
| 2026-05-06 13:40 | 57.26184 | -177.82184 | 31041 ft | 475 kts | 65° |
| 2026-05-06 13:40 | 57.29038 | -177.71234 | 31045 ft | 476 kts | 65° |
| 2026-05-06 13:41 | 57.31886 | -177.60254 | 31046 ft | 477 kts | 65° |
| 2026-05-06 13:41 | 57.34753 | -177.49146 | 31054 ft | 477 kts | 65° |
| 2026-05-06 13:42 | 57.37582 | -177.38129 | 31061 ft | 478 kts | 64° |
| 2026-05-06 13:42 | 57.40398 | -177.27104 | 31054 ft | 477 kts | 65° |
| 2026-05-06 13:43 | 57.43232 | -177.15956 | 31065 ft | 478 kts | 65° |
| 2026-05-06 13:43 | 57.46057 | -177.04787 | 31059 ft | 478 kts | 65° |
| 2026-05-06 13:44 | 57.48867 | -176.93619 | 31065 ft | 480 kts | 65° |
| 2026-05-06 13:44 | 57.51676 | -176.82399 | 31062 ft | 481 kts | 65° |
| 2026-05-06 13:45 | 57.54459 | -176.71225 | 31068 ft | 481 kts | 65° |
| 2026-05-06 13:45 | 57.58651 | -176.54292 | 31082 ft | 483 kts | 65° |
| 2026-05-06 13:46 | 57.61440 | -176.42950 | 31087 ft | 484 kts | 64° |
| 2026-05-06 13:46 | 57.64241 | -176.31563 | 31083 ft | 485 kts | 65° |
| 2026-05-06 13:47 | 57.67046 | -176.20099 | 31093 ft | 485 kts | 65° |
| 2026-05-06 13:47 | 57.69830 | -176.08661 | 31093 ft | 486 kts | 65° |
| 2026-05-06 13:48 | 57.72604 | -175.97200 | 31099 ft | 486 kts | 65° |
| 2026-05-06 13:48 | 57.75361 | -175.85754 | 31100 ft | 487 kts | 65° |
| 2026-05-06 13:49 | 57.78125 | -175.74216 | 31101 ft | 488 kts | 65° |
| 2026-05-06 13:49 | 57.80884 | -175.62639 | 31102 ft | 486 kts | 65° |
| 2026-05-06 13:50 | 57.83620 | -175.51096 | 31109 ft | 489 kts | 65° |
| 2026-05-06 13:50 | 57.86342 | -175.39549 | 31114 ft | 488 kts | 64° |
| 2026-05-06 13:51 | 57.89067 | -175.27927 | 31106 ft | 487 kts | 65° |
| 2026-05-06 13:51 | 57.91783 | -175.16278 | 31111 ft | 489 kts | 65° |
| 2026-05-06 13:52 | 57.94483 | -175.04637 | 31108 ft | 488 kts | 65° |
| 2026-05-06 13:52 | 57.97181 | -174.92944 | 31109 ft | 489 kts | 65° |
| 2026-05-06 13:53 | 57.99864 | -174.81247 | 31112 ft | 490 kts | 65° |
| 2026-05-06 13:53 | 58.02563 | -174.69417 | 31111 ft | 490 kts | 65° |
| 2026-05-06 13:54 | 58.05228 | -174.57669 | 31111 ft | 490 kts | 65° |
| 2026-05-06 13:54 | 58.07882 | -174.45905 | 31120 ft | 491 kts | 64° |
| 2026-05-06 13:55 | 58.10530 | -174.34102 | 31122 ft | 492 kts | 65° |
| 2026-05-06 13:55 | 58.13178 | -174.22232 | 31122 ft | 491 kts | 65° |
| 2026-05-06 13:56 | 58.15832 | -174.10271 | 31127 ft | 493 kts | 65° |
| 2026-05-06 13:56 | 58.18463 | -173.98341 | 31129 ft | 493 kts | 65° |
| 2026-05-06 13:57 | 58.21072 | -173.86444 | 31133 ft | 493 kts | 65° |
| 2026-05-06 13:57 | 58.23679 | -173.74486 | 31133 ft | 493 kts | 65° |
| 2026-05-06 13:58 | 58.26300 | -173.62405 | 31137 ft | 494 kts | 64° |
| 2026-05-06 13:58 | 58.28923 | -173.50417 | 31137 ft | 495 kts | 64° |
| 2026-05-06 13:59 | 58.31606 | -173.38419 | 31133 ft | 495 kts | 63° |
| 2026-05-06 13:59 | 58.34266 | -173.26451 | 31131 ft | 496 kts | 64° |
| 2026-05-06 14:00 | 58.36917 | -173.14441 | 31131 ft | 495 kts | 64° |
| 2026-05-06 14:00 | 58.39565 | -173.02370 | 31134 ft | 495 kts | 64° |
| 2026-05-06 14:01 | 58.42194 | -172.90297 | 31131 ft | 496 kts | 64° |
| 2026-05-06 14:01 | 58.44828 | -172.78139 | 31137 ft | 496 kts | 64° |
| 2026-05-06 14:02 | 58.47434 | -172.66040 | 31135 ft | 496 kts | 64° |
| 2026-05-06 14:02 | 58.50034 | -172.53897 | 31143 ft | 495 kts | 64° |
| 2026-05-06 14:03 | 58.52603 | -172.41827 | 31135 ft | 494 kts | 64° |
| 2026-05-06 14:03 | 58.55181 | -172.29645 | 31129 ft | 495 kts | 64° |
| 2026-05-06 14:04 | 58.57738 | -172.17485 | 31136 ft | 494 kts | 64° |
| 2026-05-06 14:04 | 58.60274 | -172.05359 | 31131 ft | 494 kts | 64° |
| 2026-05-06 14:05 | 58.62809 | -171.93162 | 31136 ft | 494 kts | 64° |
| 2026-05-06 14:05 | 58.65324 | -171.80989 | 31134 ft | 493 kts | 64° |
| 2026-05-06 14:06 | 58.67839 | -171.68747 | 31128 ft | 492 kts | 64° |
| 2026-05-06 14:06 | 58.70330 | -171.56547 | 31138 ft | 491 kts | 64° |
| 2026-05-06 14:07 | 58.72784 | -171.44457 | 31132 ft | 490 kts | 64° |
| 2026-05-06 14:07 | 58.75247 | -171.32239 | 31147 ft | 490 kts | 65° |
| 2026-05-06 14:08 | 58.77807 | -171.20126 | 31154 ft | 489 kts | 63° |
| 2026-05-06 14:08 | 58.80426 | -171.08038 | 31155 ft | 490 kts | 63° |
| 2026-05-06 14:09 | 58.83016 | -170.95976 | 31151 ft | 488 kts | 63° |
| 2026-05-06 14:09 | 58.85589 | -170.83900 | 31140 ft | 486 kts | 63° |
| 2026-05-06 14:10 | 58.88129 | -170.71898 | 31160 ft | 488 kts | 64° |
| 2026-05-06 14:10 | 58.90671 | -170.59805 | 31154 ft | 485 kts | 64° |
| 2026-05-06 14:11 | 58.93182 | -170.47797 | 31149 ft | 485 kts | 64° |
| 2026-05-06 14:11 | 58.95697 | -170.35690 | 31151 ft | 484 kts | 64° |
| 2026-05-06 14:12 | 58.98180 | -170.23669 | 31163 ft | 485 kts | 65° |
| 2026-05-06 14:12 | 59.00660 | -170.11589 | 31152 ft | 483 kts | 65° |
| 2026-05-06 14:13 | 59.03111 | -169.99571 | 31142 ft | 481 kts | 65° |
| 2026-05-06 14:13 | 59.05561 | -169.87495 | 31145 ft | 481 kts | 64° |
| 2026-05-06 14:14 | 59.07998 | -169.75417 | 31155 ft | 482 kts | 65° |
| 2026-05-06 14:14 | 59.10419 | -169.63341 | 31153 ft | 481 kts | 65° |
| 2026-05-06 14:15 | 59.12829 | -169.51250 | 31162 ft | 481 kts | 65° |
| 2026-05-06 14:15 | 59.15229 | -169.39128 | 31162 ft | 480 kts | 65° |
| 2026-05-06 14:16 | 59.17599 | -169.27084 | 31151 ft | 480 kts | 66° |
| 2026-05-06 14:16 | 59.19967 | -169.14972 | 31147 ft | 480 kts | 66° |
| 2026-05-06 14:17 | 59.22330 | -169.02811 | 31148 ft | 480 kts | 66° |
| 2026-05-06 14:17 | 59.24672 | -168.90694 | 31146 ft | 481 kts | 65° |
| 2026-05-06 14:18 | 59.27016 | -168.78488 | 31149 ft | 481 kts | 65° |
| 2026-05-06 14:18 | 59.29335 | -168.66324 | 31143 ft | 480 kts | 66° |
| 2026-05-06 14:19 | 59.31634 | -168.54195 | 31147 ft | 479 kts | 65° |
| 2026-05-06 14:19 | 59.33930 | -168.42011 | 31141 ft | 480 kts | 66° |
| 2026-05-06 14:20 | 59.36229 | -168.29727 | 31143 ft | 481 kts | 66° |
| 2026-05-06 14:20 | 59.38509 | -168.17465 | 31138 ft | 481 kts | 66° |
| 2026-05-06 14:21 | 59.40774 | -168.05212 | 31137 ft | 480 kts | 66° |
| 2026-05-06 14:21 | 59.43036 | -167.92899 | 31133 ft | 480 kts | 66° |
| 2026-05-06 14:22 | 59.45279 | -167.80614 | 31131 ft | 481 kts | 66° |
| 2026-05-06 14:22 | 59.47514 | -167.68288 | 31130 ft | 481 kts | 66° |
| 2026-05-06 14:23 | 59.49742 | -167.55914 | 31132 ft | 481 kts | 66° |
| 2026-05-06 14:23 | 59.51963 | -167.43588 | 31148 ft | 482 kts | 66° |
| 2026-05-06 14:24 | 59.54223 | -167.31206 | 31125 ft | 483 kts | 67° |
| 2026-05-06 14:24 | 59.56486 | -167.18724 | 31133 ft | 484 kts | 67° |
| 2026-05-06 14:25 | 59.58727 | -167.06285 | 31120 ft | 485 kts | 67° |
| 2026-05-06 14:25 | 59.60958 | -166.93802 | 31124 ft | 484 kts | 67° |
| 2026-05-06 14:26 | 59.63179 | -166.81277 | 31122 ft | 485 kts | 67° |
| 2026-05-06 14:26 | 59.65379 | -166.68802 | 31118 ft | 487 kts | 66° |
| 2026-05-06 14:27 | 59.67582 | -166.56218 | 31124 ft | 487 kts | 66° |
| 2026-05-06 14:27 | 59.69776 | -166.43607 | 31129 ft | 486 kts | 67° |
| 2026-05-06 14:28 | 59.71973 | -166.30888 | 31121 ft | 489 kts | 67° |
| 2026-05-06 14:28 | 59.74152 | -166.18192 | 31115 ft | 491 kts | 67° |
| 2026-05-06 14:29 | 59.76326 | -166.05420 | 31124 ft | 492 kts | 67° |
| 2026-05-06 14:29 | 59.78481 | -165.92688 | 31113 ft | 491 kts | 68° |
| 2026-05-06 14:30 | 59.80645 | -165.79810 | 31124 ft | 491 kts | 67° |
| 2026-05-06 14:30 | 59.82783 | -165.66992 | 31118 ft | 492 kts | 67° |
| 2026-05-06 14:31 | 59.84910 | -165.54141 | 31094 ft | 493 kts | 67° |
| 2026-05-06 14:31 | 59.87037 | -165.41199 | 31117 ft | 493 kts | 67° |
| 2026-05-06 14:32 | 59.89145 | -165.28273 | 31112 ft | 493 kts | 68° |
| 2026-05-06 14:32 | 59.91232 | -165.15387 | 31109 ft | 494 kts | 68° |
| 2026-05-06 14:33 | 59.93323 | -165.02383 | 31118 ft | 493 kts | 68° |
| 2026-05-06 14:33 | 59.95396 | -164.89394 | 31111 ft | 494 kts | 68° |
| 2026-05-06 14:34 | 59.97469 | -164.76318 | 31103 ft | 495 kts | 68° |
| 2026-05-06 14:34 | 59.99517 | -164.63290 | 31113 ft | 495 kts | 68° |
| 2026-05-06 14:35 | 60.01566 | -164.50165 | 31104 ft | 496 kts | 68° |
| 2026-05-06 14:35 | 60.03604 | -164.37015 | 31108 ft | 496 kts | 68° |
| 2026-05-06 14:36 | 60.05623 | -164.23881 | 31093 ft | 496 kts | 68° |
| 2026-05-06 14:36 | 60.07620 | -164.10788 | 31107 ft | 496 kts | 68° |
| 2026-05-06 14:37 | 60.09615 | -163.97607 | 31110 ft | 496 kts | 68° |
| 2026-05-06 14:37 | 60.11608 | -163.84348 | 31121 ft | 497 kts | 69° |
| 2026-05-06 14:38 | 60.13571 | -163.71168 | 31118 ft | 497 kts | 68° |
| 2026-05-06 14:38 | 60.15531 | -163.57916 | 31109 ft | 498 kts | 68° |
| 2026-05-06 14:39 | 60.17490 | -163.44560 | 31115 ft | 499 kts | 68° |
| 2026-05-06 14:39 | 60.19424 | -163.31273 | 31128 ft | 500 kts | 69° |
| 2026-05-06 14:40 | 60.21350 | -163.17926 | 31114 ft | 500 kts | 69° |
| 2026-05-06 14:40 | 60.23272 | -163.04501 | 31099 ft | 500 kts | 69° |
| 2026-05-06 14:41 | 60.25182 | -162.91051 | 31109 ft | 501 kts | 69° |
| 2026-05-06 14:41 | 60.27065 | -162.77673 | 31112 ft | 501 kts | 69° |
| 2026-05-06 14:42 | 60.28939 | -162.64253 | 31113 ft | 501 kts | 69° |
| 2026-05-06 14:42 | 60.30865 | -162.50856 | 31127 ft | 501 kts | 68° |
| 2026-05-06 14:43 | 60.32800 | -162.37398 | 31107 ft | 500 kts | 68° |
| 2026-05-06 14:43 | 60.34710 | -162.23985 | 31103 ft | 501 kts | 69° |
| 2026-05-06 14:44 | 60.36622 | -162.10434 | 31094 ft | 500 kts | 69° |
| 2026-05-06 14:45 | 60.39439 | -161.90259 | 31102 ft | 501 kts | 69° |
| 2026-05-06 14:45 | 60.41302 | -161.76762 | 31098 ft | 501 kts | 69° |
| 2026-05-06 14:46 | 60.43140 | -161.63333 | 31096 ft | 499 kts | 69° |
| 2026-05-06 14:46 | 60.44974 | -161.49826 | 31098 ft | 499 kts | 69° |
| 2026-05-06 14:47 | 60.46802 | -161.36244 | 31090 ft | 498 kts | 69° |
| 2026-05-06 14:47 | 60.48600 | -161.22771 | 31099 ft | 501 kts | 70° |
| 2026-05-06 14:48 | 60.50397 | -161.09178 | 31087 ft | 499 kts | 71° |
| 2026-05-06 14:48 | 60.52174 | -160.95622 | 31094 ft | 499 kts | 71° |
| 2026-05-06 14:49 | 60.53936 | -160.82059 | 31076 ft | 498 kts | 71° |
| 2026-05-06 14:49 | 60.55674 | -160.68559 | 31064 ft | 497 kts | 71° |
| 2026-05-06 14:50 | 60.57398 | -160.55054 | 31067 ft | 496 kts | 71° |
| 2026-05-06 14:50 | 60.59113 | -160.41495 | 31070 ft | 496 kts | 71° |
| 2026-05-06 14:51 | 60.60807 | -160.27972 | 31062 ft | 496 kts | 72° |
| 2026-05-06 14:51 | 60.62487 | -160.14450 | 31052 ft | 495 kts | 72° |
| 2026-05-06 14:52 | 60.64151 | -160.00928 | 31007 ft | 495 kts | 72° |
| 2026-05-06 14:52 | 60.65798 | -159.87416 | 30991 ft | 492 kts | 72° |
| 2026-05-06 14:53 | 60.67429 | -159.73912 | 31007 ft | 494 kts | 72° |
| 2026-05-06 14:53 | 60.69053 | -159.60347 | 30996 ft | 494 kts | 72° |
| 2026-05-06 14:54 | 60.70655 | -159.46829 | 30961 ft | 492 kts | 72° |
| 2026-05-06 14:54 | 60.72244 | -159.33293 | 30985 ft | 493 kts | 73° |
| 2026-05-06 14:55 | 60.73825 | -159.19702 | 31007 ft | 493 kts | 72° |
| 2026-05-06 14:55 | 60.75389 | -159.06120 | 31019 ft | 493 kts | 72° |
| 2026-05-06 14:56 | 60.76946 | -158.92467 | 31026 ft | 493 kts | 73° |
| 2026-05-06 14:56 | 60.78479 | -158.78888 | 31023 ft | 493 kts | 72° |
| 2026-05-06 14:57 | 60.79997 | -158.65309 | 31019 ft | 492 kts | 72° |
| 2026-05-06 14:57 | 60.81502 | -158.51712 | 31018 ft | 492 kts | 72° |
| 2026-05-06 14:58 | 60.83001 | -158.38032 | 31014 ft | 493 kts | 72° |
| 2026-05-06 14:58 | 60.84477 | -158.24428 | 31010 ft | 492 kts | 73° |
| 2026-05-06 14:59 | 60.85944 | -158.10757 | 31017 ft | 493 kts | 73° |
| 2026-05-06 14:59 | 60.87397 | -157.97078 | 31024 ft | 493 kts | 73° |
| 2026-05-06 15:00 | 60.88851 | -157.83254 | 31022 ft | 494 kts | 72° |
| 2026-05-06 15:00 | 60.90275 | -157.69566 | 31024 ft | 496 kts | 72° |
| 2026-05-06 15:01 | 60.91698 | -157.55751 | 31009 ft | 496 kts | 72° |
| 2026-05-06 15:01 | 60.93109 | -157.41885 | 31002 ft | 496 kts | 72° |
| 2026-05-06 15:02 | 60.94506 | -157.28030 | 31008 ft | 497 kts | 73° |
| 2026-05-06 15:02 | 60.95881 | -157.14200 | 31019 ft | 497 kts | 73° |
| 2026-05-06 15:03 | 60.97249 | -157.00299 | 31028 ft | 499 kts | 72° |
| 2026-05-06 15:03 | 60.98606 | -156.86371 | 31028 ft | 499 kts | 73° |
| 2026-05-06 15:04 | 60.99952 | -156.72372 | 31018 ft | 498 kts | 73° |
| 2026-05-06 15:04 | 61.01279 | -156.58392 | 31030 ft | 498 kts | 73° |
| 2026-05-06 15:05 | 61.02584 | -156.44507 | 31038 ft | 497 kts | 73° |
| 2026-05-06 15:05 | 61.03885 | -156.30536 | 31025 ft | 498 kts | 74° |
| 2026-05-06 15:06 | 61.05170 | -156.16544 | 31020 ft | 497 kts | 74° |
| 2026-05-06 15:06 | 61.06436 | -156.02599 | 31007 ft | 497 kts | 74° |
| 2026-05-06 15:07 | 61.07687 | -155.88638 | 31003 ft | 496 kts | 74° |
| 2026-05-06 15:07 | 61.08917 | -155.74734 | 30998 ft | 496 kts | 74° |
| 2026-05-06 15:08 | 61.10147 | -155.60718 | 30994 ft | 494 kts | 73° |
| 2026-05-06 15:08 | 61.11594 | -155.46887 | 31002 ft | 493 kts | 72° |
| 2026-05-06 15:09 | 61.13043 | -155.33072 | 30996 ft | 493 kts | 73° |
| 2026-05-06 15:09 | 61.14463 | -155.19315 | 30986 ft | 492 kts | 73° |
| 2026-05-06 15:10 | 61.15866 | -155.05528 | 30987 ft | 491 kts | 73° |
| 2026-05-06 15:10 | 61.17246 | -154.91797 | 30985 ft | 490 kts | 74° |
| 2026-05-06 15:11 | 61.18614 | -154.78008 | 30985 ft | 491 kts | 74° |
| 2026-05-06 15:11 | 61.19971 | -154.64154 | 30975 ft | 491 kts | 74° |
| 2026-05-06 15:12 | 61.21314 | -154.50308 | 30951 ft | 492 kts | 74° |
| 2026-05-06 15:12 | 61.22641 | -154.36467 | 30902 ft | 491 kts | 74° |
| 2026-05-06 15:13 | 61.23953 | -154.22607 | 30828 ft | 491 kts | 75° |
| 2026-05-06 15:13 | 61.25250 | -154.08746 | 30816 ft | 490 kts | 75° |
| 2026-05-06 15:14 | 61.26523 | -153.94955 | 30832 ft | 490 kts | 76° |
| 2026-05-06 15:14 | 61.27790 | -153.81076 | 30884 ft | 489 kts | 76° |
| 2026-05-06 15:15 | 61.29037 | -153.67259 | 30912 ft | 490 kts | 76° |
| 2026-05-06 15:15 | 61.30273 | -153.53391 | 30847 ft | 490 kts | 76° |
| 2026-05-06 15:16 | 61.31499 | -153.39484 | 30799 ft | 489 kts | 76° |
| 2026-05-06 15:16 | 61.32714 | -153.25554 | 30792 ft | 490 kts | 77° |
| 2026-05-06 15:17 | 61.33901 | -153.11745 | 30799 ft | 490 kts | 77° |
| 2026-05-06 15:17 | 61.35086 | -152.97786 | 30817 ft | 489 kts | 78° |
| 2026-05-06 15:18 | 61.36248 | -152.83925 | 30826 ft | 489 kts | 78° |
| 2026-05-06 15:18 | 61.37398 | -152.70012 | 30818 ft | 488 kts | 78° |
| 2026-05-06 15:19 | 61.38535 | -152.56088 | 30770 ft | 487 kts | 78° |
| 2026-05-06 15:19 | 61.39650 | -152.42244 | 30740 ft | 487 kts | 78° |
| 2026-05-06 15:20 | 61.40760 | -152.28268 | 30754 ft | 488 kts | 79° |
| 2026-05-06 15:20 | 61.41845 | -152.14444 | 30786 ft | 487 kts | 79° |
| 2026-05-06 15:21 | 61.42926 | -152.00475 | 30830 ft | 487 kts | 80° |
| 2026-05-06 15:21 | 61.43983 | -151.86630 | 30852 ft | 485 kts | 80° |
| 2026-05-06 15:22 | 61.45028 | -151.72743 | 30851 ft | 485 kts | 80° |
| 2026-05-06 15:22 | 61.46053 | -151.58903 | 30865 ft | 485 kts | 80° |
| 2026-05-06 15:23 | 61.47065 | -151.45036 | 30879 ft | 485 kts | 80° |
| 2026-05-06 15:23 | 61.48072 | -151.31062 | 30895 ft | 485 kts | 81° |
| 2026-05-06 15:24 | 61.49060 | -151.17131 | 30902 ft | 485 kts | 81° |
| 2026-05-06 15:24 | 61.50028 | -151.03281 | 30879 ft | 484 kts | 82° |
| 2026-05-06 15:25 | 61.50981 | -150.89415 | 30866 ft | 483 kts | 82° |
| 2026-05-06 15:25 | 61.51924 | -150.75505 | 30826 ft | 482 kts | 82° |
| 2026-05-06 15:26 | 61.52846 | -150.61670 | 30849 ft | 484 kts | 82° |
| 2026-05-06 15:26 | 61.53763 | -150.47725 | 30898 ft | 484 kts | 82° |
| 2026-05-06 15:27 | 61.54659 | -150.33847 | 30921 ft | 484 kts | 83° |
| 2026-05-06 15:27 | 61.55542 | -150.19890 | 30925 ft | 484 kts | 83° |
| 2026-05-06 15:28 | 61.56414 | -150.05925 | 30921 ft | 483 kts | 83° |